<?xml version="1.0" encoding="UTF-8" standalone="no" ?>
<gpx xmlns="http://www.topografix.com/GPX/1/1" xmlns:xsi="http://www.w3.org/2001/XMLSchema-instance" xsi:schemaLocation="http://www.topografix.com/GPX/1/1 http://www.topografix.com/GPX/1/1/gpx.xsd" version="1.1" creator="VisuGPX - https://www.visugpx.com">
  <metadata>
    <name>2020-07-17 11:55:19</name>
  </metadata>
  <trk>
    <name><![CDATA[2020-07-17 11:55:19]]></name>
    <trkseg>
      <trkpt lat="44.82616" lon="4.68023">
        <ele>158.27</ele>
        <time>2020-07-17T07:19:54Z</time>
      </trkpt>
      <trkpt lat="44.82615" lon="4.68023">
        <ele>157.79</ele>
        <time>2020-07-17T07:20:12Z</time>
      </trkpt>
      <trkpt lat="44.82617" lon="4.6802">
        <ele>157.79</ele>
        <time>2020-07-17T07:20:26Z</time>
      </trkpt>
      <trkpt lat="44.82614" lon="4.68017">
        <ele>158.27</ele>
        <time>2020-07-17T07:20:44Z</time>
      </trkpt>
      <trkpt lat="44.82614" lon="4.68019">
        <ele>159.24</ele>
        <time>2020-07-17T07:21:10Z</time>
      </trkpt>
      <trkpt lat="44.82614" lon="4.68024">
        <ele>159.72</ele>
        <time>2020-07-17T07:21:13Z</time>
      </trkpt>
      <trkpt lat="44.82625" lon="4.68041">
        <ele>160.2</ele>
        <time>2020-07-17T07:21:28Z</time>
      </trkpt>
      <trkpt lat="44.82635" lon="4.68045">
        <ele>161.64</ele>
        <time>2020-07-17T07:21:41Z</time>
      </trkpt>
      <trkpt lat="44.82641" lon="4.68044">
        <ele>165.96</ele>
        <time>2020-07-17T07:21:52Z</time>
      </trkpt>
      <trkpt lat="44.8264" lon="4.68035">
        <ele>163.08</ele>
        <time>2020-07-17T07:22:02Z</time>
      </trkpt>
      <trkpt lat="44.82639" lon="4.68028">
        <ele>162.12</ele>
        <time>2020-07-17T07:22:06Z</time>
      </trkpt>
      <trkpt lat="44.82643" lon="4.67995">
        <ele>159.24</ele>
        <time>2020-07-17T07:22:24Z</time>
      </trkpt>
      <trkpt lat="44.82641" lon="4.67983">
        <ele>158.27</ele>
        <time>2020-07-17T07:22:30Z</time>
      </trkpt>
      <trkpt lat="44.82641" lon="4.67966">
        <ele>157.31</ele>
        <time>2020-07-17T07:22:40Z</time>
      </trkpt>
      <trkpt lat="44.82634" lon="4.67934">
        <ele>157.31</ele>
        <time>2020-07-17T07:22:58Z</time>
      </trkpt>
      <trkpt lat="44.82633" lon="4.6793">
        <ele>156.83</ele>
        <time>2020-07-17T07:23:04Z</time>
      </trkpt>
      <trkpt lat="44.82631" lon="4.67906">
        <ele>155.87</ele>
        <time>2020-07-17T07:23:19Z</time>
      </trkpt>
      <trkpt lat="44.82631" lon="4.67875">
        <ele>156.83</ele>
        <time>2020-07-17T07:23:37Z</time>
      </trkpt>
      <trkpt lat="44.82631" lon="4.67874">
        <ele>156.83</ele>
        <time>2020-07-17T07:23:38Z</time>
      </trkpt>
      <trkpt lat="44.82627" lon="4.67835">
        <ele>159.72</ele>
        <time>2020-07-17T07:23:58Z</time>
      </trkpt>
      <trkpt lat="44.82628" lon="4.67807">
        <ele>160.2</ele>
        <time>2020-07-17T07:24:14Z</time>
      </trkpt>
      <trkpt lat="44.82633" lon="4.67776">
        <ele>159.24</ele>
        <time>2020-07-17T07:24:33Z</time>
      </trkpt>
      <trkpt lat="44.82634" lon="4.67774">
        <ele>159.24</ele>
        <time>2020-07-17T07:24:34Z</time>
      </trkpt>
      <trkpt lat="44.82656" lon="4.67757">
        <ele>161.16</ele>
        <time>2020-07-17T07:24:54Z</time>
      </trkpt>
      <trkpt lat="44.82679" lon="4.67744">
        <ele>164.04</ele>
        <time>2020-07-17T07:25:14Z</time>
      </trkpt>
      <trkpt lat="44.82702" lon="4.67732">
        <ele>165</ele>
        <time>2020-07-17T07:25:32Z</time>
      </trkpt>
      <trkpt lat="44.82724" lon="4.6772">
        <ele>163.08</ele>
        <time>2020-07-17T07:25:49Z</time>
      </trkpt>
      <trkpt lat="44.82746" lon="4.67706">
        <ele>161.64</ele>
        <time>2020-07-17T07:26:07Z</time>
      </trkpt>
      <trkpt lat="44.82768" lon="4.67694">
        <ele>161.16</ele>
        <time>2020-07-17T07:26:24Z</time>
      </trkpt>
      <trkpt lat="44.82792" lon="4.6768">
        <ele>160.68</ele>
        <time>2020-07-17T07:26:43Z</time>
      </trkpt>
      <trkpt lat="44.82809" lon="4.67668">
        <ele>164.04</ele>
        <time>2020-07-17T07:26:59Z</time>
      </trkpt>
      <trkpt lat="44.82813" lon="4.67667">
        <ele>165.96</ele>
        <time>2020-07-17T07:27:03Z</time>
      </trkpt>
      <trkpt lat="44.82834" lon="4.67658">
        <ele>165.48</ele>
        <time>2020-07-17T07:27:18Z</time>
      </trkpt>
      <trkpt lat="44.82846" lon="4.67643">
        <ele>167.41</ele>
        <time>2020-07-17T07:27:31Z</time>
      </trkpt>
      <trkpt lat="44.82852" lon="4.6762">
        <ele>171.25</ele>
        <time>2020-07-17T07:27:43Z</time>
      </trkpt>
      <trkpt lat="44.82879" lon="4.67624">
        <ele>186.63</ele>
        <time>2020-07-17T07:28:00Z</time>
      </trkpt>
      <trkpt lat="44.82905" lon="4.67617">
        <ele>189.52</ele>
        <time>2020-07-17T07:28:18Z</time>
      </trkpt>
      <trkpt lat="44.82922" lon="4.67604">
        <ele>194.8</ele>
        <time>2020-07-17T07:28:34Z</time>
      </trkpt>
      <trkpt lat="44.82941" lon="4.67597">
        <ele>195.77</ele>
        <time>2020-07-17T07:28:49Z</time>
      </trkpt>
      <trkpt lat="44.82966" lon="4.67584">
        <ele>195.28</ele>
        <time>2020-07-17T07:29:07Z</time>
      </trkpt>
      <trkpt lat="44.82979" lon="4.67578">
        <ele>193.84</ele>
        <time>2020-07-17T07:29:17Z</time>
      </trkpt>
      <trkpt lat="44.82996" lon="4.67578">
        <ele>190.96</ele>
        <time>2020-07-17T07:29:31Z</time>
      </trkpt>
      <trkpt lat="44.83018" lon="4.67574">
        <ele>186.15</ele>
        <time>2020-07-17T07:29:46Z</time>
      </trkpt>
      <trkpt lat="44.83046" lon="4.67564">
        <ele>180.87</ele>
        <time>2020-07-17T07:30:05Z</time>
      </trkpt>
      <trkpt lat="44.83069" lon="4.67563">
        <ele>184.71</ele>
        <time>2020-07-17T07:30:22Z</time>
      </trkpt>
      <trkpt lat="44.83087" lon="4.67557">
        <ele>181.35</ele>
        <time>2020-07-17T07:30:35Z</time>
      </trkpt>
      <trkpt lat="44.8309" lon="4.67556">
        <ele>181.83</ele>
        <time>2020-07-17T07:30:38Z</time>
      </trkpt>
      <trkpt lat="44.83087" lon="4.67552">
        <ele>180.38</ele>
        <time>2020-07-17T07:30:42Z</time>
      </trkpt>
      <trkpt lat="44.83085" lon="4.67542">
        <ele>174.62</ele>
        <time>2020-07-17T07:30:57Z</time>
      </trkpt>
      <trkpt lat="44.83086" lon="4.6754">
        <ele>171.73</ele>
        <time>2020-07-17T07:31:12Z</time>
      </trkpt>
      <trkpt lat="44.83088" lon="4.67543">
        <ele>171.25</ele>
        <time>2020-07-17T07:31:33Z</time>
      </trkpt>
      <trkpt lat="44.83088" lon="4.67543">
        <ele>169.81</ele>
        <time>2020-07-17T07:31:48Z</time>
      </trkpt>
      <trkpt lat="44.8309" lon="4.67545">
        <ele>171.25</ele>
        <time>2020-07-17T07:31:58Z</time>
      </trkpt>
      <trkpt lat="44.83098" lon="4.67553">
        <ele>170.77</ele>
        <time>2020-07-17T07:32:15Z</time>
      </trkpt>
      <trkpt lat="44.83097" lon="4.67553">
        <ele>169.81</ele>
        <time>2020-07-17T07:32:21Z</time>
      </trkpt>
      <trkpt lat="44.83101" lon="4.6755">
        <ele>171.25</ele>
        <time>2020-07-17T07:32:26Z</time>
      </trkpt>
      <trkpt lat="44.83106" lon="4.67548">
        <ele>172.21</ele>
        <time>2020-07-17T07:32:31Z</time>
      </trkpt>
      <trkpt lat="44.83113" lon="4.6754">
        <ele>174.14</ele>
        <time>2020-07-17T07:32:39Z</time>
      </trkpt>
      <trkpt lat="44.83125" lon="4.67522">
        <ele>178.46</ele>
        <time>2020-07-17T07:32:54Z</time>
      </trkpt>
      <trkpt lat="44.83142" lon="4.67506">
        <ele>179.9</ele>
        <time>2020-07-17T07:33:11Z</time>
      </trkpt>
      <trkpt lat="44.83159" lon="4.67492">
        <ele>178.46</ele>
        <time>2020-07-17T07:33:28Z</time>
      </trkpt>
      <trkpt lat="44.8316" lon="4.67491">
        <ele>178.46</ele>
        <time>2020-07-17T07:33:29Z</time>
      </trkpt>
      <trkpt lat="44.83164" lon="4.67488">
        <ele>179.42</ele>
        <time>2020-07-17T07:33:33Z</time>
      </trkpt>
      <trkpt lat="44.83179" lon="4.67475">
        <ele>180.87</ele>
        <time>2020-07-17T07:33:49Z</time>
      </trkpt>
      <trkpt lat="44.83198" lon="4.67461">
        <ele>180.38</ele>
        <time>2020-07-17T07:34:07Z</time>
      </trkpt>
      <trkpt lat="44.83211" lon="4.67444">
        <ele>181.35</ele>
        <time>2020-07-17T07:34:24Z</time>
      </trkpt>
      <trkpt lat="44.83213" lon="4.6744">
        <ele>181.83</ele>
        <time>2020-07-17T07:34:27Z</time>
      </trkpt>
      <trkpt lat="44.8322" lon="4.67432">
        <ele>183.75</ele>
        <time>2020-07-17T07:34:36Z</time>
      </trkpt>
      <trkpt lat="44.83235" lon="4.67416">
        <ele>186.15</ele>
        <time>2020-07-17T07:34:53Z</time>
      </trkpt>
      <trkpt lat="44.83249" lon="4.67403">
        <ele>188.08</ele>
        <time>2020-07-17T07:35:10Z</time>
      </trkpt>
      <trkpt lat="44.83263" lon="4.67392">
        <ele>192.4</ele>
        <time>2020-07-17T07:35:27Z</time>
      </trkpt>
      <trkpt lat="44.83268" lon="4.67386">
        <ele>193.36</ele>
        <time>2020-07-17T07:35:34Z</time>
      </trkpt>
      <trkpt lat="44.83273" lon="4.67374">
        <ele>193.84</ele>
        <time>2020-07-17T07:35:46Z</time>
      </trkpt>
      <trkpt lat="44.83272" lon="4.67372">
        <ele>195.28</ele>
        <time>2020-07-17T07:35:59Z</time>
      </trkpt>
      <trkpt lat="44.83261" lon="4.67369">
        <ele>198.17</ele>
        <time>2020-07-17T07:36:12Z</time>
      </trkpt>
      <trkpt lat="44.8325" lon="4.67367">
        <ele>202.01</ele>
        <time>2020-07-17T07:36:27Z</time>
      </trkpt>
      <trkpt lat="44.83248" lon="4.67369">
        <ele>202.49</ele>
        <time>2020-07-17T07:36:29Z</time>
      </trkpt>
      <trkpt lat="44.83238" lon="4.67372">
        <ele>203.46</ele>
        <time>2020-07-17T07:36:38Z</time>
      </trkpt>
      <trkpt lat="44.83222" lon="4.67372">
        <ele>204.9</ele>
        <time>2020-07-17T07:36:53Z</time>
      </trkpt>
      <trkpt lat="44.83213" lon="4.67365">
        <ele>204.9</ele>
        <time>2020-07-17T07:37:05Z</time>
      </trkpt>
      <trkpt lat="44.83209" lon="4.67359">
        <ele>206.34</ele>
        <time>2020-07-17T07:37:10Z</time>
      </trkpt>
      <trkpt lat="44.83202" lon="4.67347">
        <ele>209.7</ele>
        <time>2020-07-17T07:37:20Z</time>
      </trkpt>
      <trkpt lat="44.83197" lon="4.67329">
        <ele>212.11</ele>
        <time>2020-07-17T07:37:35Z</time>
      </trkpt>
      <trkpt lat="44.83194" lon="4.67324">
        <ele>215.95</ele>
        <time>2020-07-17T07:37:51Z</time>
      </trkpt>
      <trkpt lat="44.832" lon="4.67324">
        <ele>216.91</ele>
        <time>2020-07-17T07:38:06Z</time>
      </trkpt>
      <trkpt lat="44.83204" lon="4.67329">
        <ele>219.8</ele>
        <time>2020-07-17T07:38:19Z</time>
      </trkpt>
      <trkpt lat="44.83211" lon="4.67333">
        <ele>221.72</ele>
        <time>2020-07-17T07:38:31Z</time>
      </trkpt>
      <trkpt lat="44.83221" lon="4.67334">
        <ele>221.72</ele>
        <time>2020-07-17T07:38:46Z</time>
      </trkpt>
      <trkpt lat="44.83221" lon="4.67325">
        <ele>221.24</ele>
        <time>2020-07-17T07:38:58Z</time>
      </trkpt>
      <trkpt lat="44.83222" lon="4.67316">
        <ele>222.68</ele>
        <time>2020-07-17T07:39:11Z</time>
      </trkpt>
      <trkpt lat="44.83219" lon="4.67305">
        <ele>224.12</ele>
        <time>2020-07-17T07:39:25Z</time>
      </trkpt>
      <trkpt lat="44.83215" lon="4.67294">
        <ele>227.01</ele>
        <time>2020-07-17T07:39:39Z</time>
      </trkpt>
      <trkpt lat="44.83214" lon="4.67283">
        <ele>229.89</ele>
        <time>2020-07-17T07:39:51Z</time>
      </trkpt>
      <trkpt lat="44.8321" lon="4.67265">
        <ele>232.78</ele>
        <time>2020-07-17T07:40:08Z</time>
      </trkpt>
      <trkpt lat="44.83213" lon="4.67254">
        <ele>234.22</ele>
        <time>2020-07-17T07:40:20Z</time>
      </trkpt>
      <trkpt lat="44.83216" lon="4.6725">
        <ele>237.1</ele>
        <time>2020-07-17T07:40:33Z</time>
      </trkpt>
      <trkpt lat="44.83222" lon="4.67249">
        <ele>242.39</ele>
        <time>2020-07-17T07:40:45Z</time>
      </trkpt>
      <trkpt lat="44.83226" lon="4.67248">
        <ele>246.23</ele>
        <time>2020-07-17T07:41:00Z</time>
      </trkpt>
      <trkpt lat="44.83225" lon="4.67239">
        <ele>248.16</ele>
        <time>2020-07-17T07:41:14Z</time>
      </trkpt>
      <trkpt lat="44.83228" lon="4.6723">
        <ele>249.6</ele>
        <time>2020-07-17T07:41:27Z</time>
      </trkpt>
      <trkpt lat="44.83225" lon="4.6722">
        <ele>249.6</ele>
        <time>2020-07-17T07:41:41Z</time>
      </trkpt>
      <trkpt lat="44.83227" lon="4.6721">
        <ele>252.48</ele>
        <time>2020-07-17T07:41:55Z</time>
      </trkpt>
      <trkpt lat="44.8323" lon="4.67202">
        <ele>254.41</ele>
        <time>2020-07-17T07:42:09Z</time>
      </trkpt>
      <trkpt lat="44.83232" lon="4.67197">
        <ele>256.33</ele>
        <time>2020-07-17T07:42:21Z</time>
      </trkpt>
      <trkpt lat="44.83233" lon="4.67186">
        <ele>260.65</ele>
        <time>2020-07-17T07:42:36Z</time>
      </trkpt>
      <trkpt lat="44.83236" lon="4.67175">
        <ele>263.54</ele>
        <time>2020-07-17T07:42:50Z</time>
      </trkpt>
      <trkpt lat="44.8324" lon="4.67169">
        <ele>265.46</ele>
        <time>2020-07-17T07:43:04Z</time>
      </trkpt>
      <trkpt lat="44.83245" lon="4.67167">
        <ele>270.75</ele>
        <time>2020-07-17T07:43:17Z</time>
      </trkpt>
      <trkpt lat="44.83253" lon="4.67165">
        <ele>276.52</ele>
        <time>2020-07-17T07:43:32Z</time>
      </trkpt>
      <trkpt lat="44.83257" lon="4.67163">
        <ele>279.88</ele>
        <time>2020-07-17T07:43:44Z</time>
      </trkpt>
      <trkpt lat="44.8326" lon="4.67159">
        <ele>280.36</ele>
        <time>2020-07-17T07:44:00Z</time>
      </trkpt>
      <trkpt lat="44.83261" lon="4.67152">
        <ele>281.32</ele>
        <time>2020-07-17T07:44:15Z</time>
      </trkpt>
      <trkpt lat="44.8326" lon="4.67142">
        <ele>284.69</ele>
        <time>2020-07-17T07:44:31Z</time>
      </trkpt>
      <trkpt lat="44.83262" lon="4.67128">
        <ele>286.61</ele>
        <time>2020-07-17T07:44:46Z</time>
      </trkpt>
      <trkpt lat="44.83266" lon="4.67123">
        <ele>290.94</ele>
        <time>2020-07-17T07:45:00Z</time>
      </trkpt>
      <trkpt lat="44.83266" lon="4.67119">
        <ele>290.94</ele>
        <time>2020-07-17T07:45:12Z</time>
      </trkpt>
      <trkpt lat="44.83267" lon="4.67115">
        <ele>293.34</ele>
        <time>2020-07-17T07:45:26Z</time>
      </trkpt>
      <trkpt lat="44.83266" lon="4.67105">
        <ele>297.18</ele>
        <time>2020-07-17T07:45:40Z</time>
      </trkpt>
      <trkpt lat="44.83266" lon="4.67096">
        <ele>297.67</ele>
        <time>2020-07-17T07:45:54Z</time>
      </trkpt>
      <trkpt lat="44.83271" lon="4.67091">
        <ele>300.55</ele>
        <time>2020-07-17T07:46:07Z</time>
      </trkpt>
      <trkpt lat="44.83276" lon="4.6709">
        <ele>301.51</ele>
        <time>2020-07-17T07:46:22Z</time>
      </trkpt>
      <trkpt lat="44.83285" lon="4.6709">
        <ele>303.43</ele>
        <time>2020-07-17T07:46:36Z</time>
      </trkpt>
      <trkpt lat="44.83294" lon="4.67094">
        <ele>307.28</ele>
        <time>2020-07-17T07:46:52Z</time>
      </trkpt>
      <trkpt lat="44.83304" lon="4.67101">
        <ele>310.16</ele>
        <time>2020-07-17T07:47:09Z</time>
      </trkpt>
      <trkpt lat="44.83315" lon="4.67105">
        <ele>309.2</ele>
        <time>2020-07-17T07:47:23Z</time>
      </trkpt>
      <trkpt lat="44.83321" lon="4.67112">
        <ele>310.64</ele>
        <time>2020-07-17T07:47:38Z</time>
      </trkpt>
      <trkpt lat="44.8333" lon="4.6712">
        <ele>312.09</ele>
        <time>2020-07-17T07:47:51Z</time>
      </trkpt>
      <trkpt lat="44.8334" lon="4.6712">
        <ele>312.09</ele>
        <time>2020-07-17T07:48:04Z</time>
      </trkpt>
      <trkpt lat="44.83347" lon="4.67124">
        <ele>315.93</ele>
        <time>2020-07-17T07:48:18Z</time>
      </trkpt>
      <trkpt lat="44.83355" lon="4.67123">
        <ele>318.33</ele>
        <time>2020-07-17T07:48:32Z</time>
      </trkpt>
      <trkpt lat="44.83363" lon="4.67122">
        <ele>318.81</ele>
        <time>2020-07-17T07:48:45Z</time>
      </trkpt>
      <trkpt lat="44.83374" lon="4.67119">
        <ele>324.1</ele>
        <time>2020-07-17T07:49:00Z</time>
      </trkpt>
      <trkpt lat="44.83381" lon="4.67113">
        <ele>328.43</ele>
        <time>2020-07-17T07:49:13Z</time>
      </trkpt>
      <trkpt lat="44.8339" lon="4.67109">
        <ele>332.75</ele>
        <time>2020-07-17T07:49:27Z</time>
      </trkpt>
      <trkpt lat="44.83397" lon="4.67106">
        <ele>336.12</ele>
        <time>2020-07-17T07:49:42Z</time>
      </trkpt>
      <trkpt lat="44.83404" lon="4.67107">
        <ele>341.41</ele>
        <time>2020-07-17T07:49:56Z</time>
      </trkpt>
      <trkpt lat="44.83412" lon="4.67105">
        <ele>345.25</ele>
        <time>2020-07-17T07:50:11Z</time>
      </trkpt>
      <trkpt lat="44.83419" lon="4.67106">
        <ele>347.17</ele>
        <time>2020-07-17T07:50:26Z</time>
      </trkpt>
      <trkpt lat="44.83426" lon="4.67107">
        <ele>343.33</ele>
        <time>2020-07-17T07:50:41Z</time>
      </trkpt>
      <trkpt lat="44.83437" lon="4.67113">
        <ele>342.37</ele>
        <time>2020-07-17T07:50:55Z</time>
      </trkpt>
      <trkpt lat="44.83452" lon="4.67113">
        <ele>347.17</ele>
        <time>2020-07-17T07:51:11Z</time>
      </trkpt>
      <trkpt lat="44.83456" lon="4.67111">
        <ele>346.69</ele>
        <time>2020-07-17T07:51:26Z</time>
      </trkpt>
      <trkpt lat="44.83465" lon="4.67106">
        <ele>350.54</ele>
        <time>2020-07-17T07:51:40Z</time>
      </trkpt>
      <trkpt lat="44.83475" lon="4.67102">
        <ele>352.94</ele>
        <time>2020-07-17T07:51:55Z</time>
      </trkpt>
      <trkpt lat="44.83489" lon="4.67102">
        <ele>357.27</ele>
        <time>2020-07-17T07:52:12Z</time>
      </trkpt>
      <trkpt lat="44.835" lon="4.67095">
        <ele>358.23</ele>
        <time>2020-07-17T07:52:27Z</time>
      </trkpt>
      <trkpt lat="44.83509" lon="4.67095">
        <ele>361.11</ele>
        <time>2020-07-17T07:52:41Z</time>
      </trkpt>
      <trkpt lat="44.83514" lon="4.67091">
        <ele>363.04</ele>
        <time>2020-07-17T07:52:55Z</time>
      </trkpt>
      <trkpt lat="44.83522" lon="4.67092">
        <ele>364</ele>
        <time>2020-07-17T07:53:08Z</time>
      </trkpt>
      <trkpt lat="44.83532" lon="4.67092">
        <ele>368.32</ele>
        <time>2020-07-17T07:53:24Z</time>
      </trkpt>
      <trkpt lat="44.83542" lon="4.67093">
        <ele>373.61</ele>
        <time>2020-07-17T07:53:38Z</time>
      </trkpt>
      <trkpt lat="44.8355" lon="4.67093">
        <ele>374.57</ele>
        <time>2020-07-17T07:53:50Z</time>
      </trkpt>
      <trkpt lat="44.83562" lon="4.67094">
        <ele>376.97</ele>
        <time>2020-07-17T07:54:05Z</time>
      </trkpt>
      <trkpt lat="44.83571" lon="4.67094">
        <ele>382.26</ele>
        <time>2020-07-17T07:54:18Z</time>
      </trkpt>
      <trkpt lat="44.83583" lon="4.67093">
        <ele>384.18</ele>
        <time>2020-07-17T07:54:31Z</time>
      </trkpt>
      <trkpt lat="44.83592" lon="4.67096">
        <ele>386.11</ele>
        <time>2020-07-17T07:54:46Z</time>
      </trkpt>
      <trkpt lat="44.83604" lon="4.67096">
        <ele>389.47</ele>
        <time>2020-07-17T07:55:00Z</time>
      </trkpt>
      <trkpt lat="44.83612" lon="4.67099">
        <ele>393.32</ele>
        <time>2020-07-17T07:55:15Z</time>
      </trkpt>
      <trkpt lat="44.83627" lon="4.671">
        <ele>394.76</ele>
        <time>2020-07-17T07:55:32Z</time>
      </trkpt>
      <trkpt lat="44.83633" lon="4.67102">
        <ele>401.01</ele>
        <time>2020-07-17T07:55:49Z</time>
      </trkpt>
      <trkpt lat="44.83644" lon="4.67103">
        <ele>401.01</ele>
        <time>2020-07-17T07:56:02Z</time>
      </trkpt>
      <trkpt lat="44.8366" lon="4.671">
        <ele>398.6</ele>
        <time>2020-07-17T07:56:17Z</time>
      </trkpt>
      <trkpt lat="44.83671" lon="4.67103">
        <ele>400.53</ele>
        <time>2020-07-17T07:56:31Z</time>
      </trkpt>
      <trkpt lat="44.83684" lon="4.67106">
        <ele>403.89</ele>
        <time>2020-07-17T07:56:46Z</time>
      </trkpt>
      <trkpt lat="44.83697" lon="4.67109">
        <ele>406.77</ele>
        <time>2020-07-17T07:56:59Z</time>
      </trkpt>
      <trkpt lat="44.83709" lon="4.67107">
        <ele>412.06</ele>
        <time>2020-07-17T07:57:15Z</time>
      </trkpt>
      <trkpt lat="44.83707" lon="4.67101">
        <ele>413.98</ele>
        <time>2020-07-17T07:57:25Z</time>
      </trkpt>
      <trkpt lat="44.83702" lon="4.67099">
        <ele>413.02</ele>
        <time>2020-07-17T07:57:37Z</time>
      </trkpt>
      <trkpt lat="44.83703" lon="4.67093">
        <ele>402.45</ele>
        <time>2020-07-17T07:57:49Z</time>
      </trkpt>
      <trkpt lat="44.83696" lon="4.67086">
        <ele>401.01</ele>
        <time>2020-07-17T07:58:06Z</time>
      </trkpt>
      <trkpt lat="44.8369" lon="4.67076">
        <ele>402.45</ele>
        <time>2020-07-17T07:58:21Z</time>
      </trkpt>
      <trkpt lat="44.83684" lon="4.67067">
        <ele>401.49</ele>
        <time>2020-07-17T07:58:34Z</time>
      </trkpt>
      <trkpt lat="44.8368" lon="4.67053">
        <ele>402.93</ele>
        <time>2020-07-17T07:58:47Z</time>
      </trkpt>
      <trkpt lat="44.83677" lon="4.67045">
        <ele>404.37</ele>
        <time>2020-07-17T07:59:01Z</time>
      </trkpt>
      <trkpt lat="44.83685" lon="4.67041">
        <ele>407.74</ele>
        <time>2020-07-17T07:59:15Z</time>
      </trkpt>
      <trkpt lat="44.83699" lon="4.67042">
        <ele>411.58</ele>
        <time>2020-07-17T07:59:31Z</time>
      </trkpt>
      <trkpt lat="44.83707" lon="4.67042">
        <ele>412.54</ele>
        <time>2020-07-17T07:59:38Z</time>
      </trkpt>
      <trkpt lat="44.83722" lon="4.67044">
        <ele>410.14</ele>
        <time>2020-07-17T07:59:55Z</time>
      </trkpt>
      <trkpt lat="44.83735" lon="4.67047">
        <ele>408.22</ele>
        <time>2020-07-17T08:00:10Z</time>
      </trkpt>
      <trkpt lat="44.83736" lon="4.67047">
        <ele>408.22</ele>
        <time>2020-07-17T08:00:12Z</time>
      </trkpt>
      <trkpt lat="44.83747" lon="4.67048">
        <ele>409.18</ele>
        <time>2020-07-17T08:00:24Z</time>
      </trkpt>
      <trkpt lat="44.83763" lon="4.67046">
        <ele>410.14</ele>
        <time>2020-07-17T08:00:40Z</time>
      </trkpt>
      <trkpt lat="44.83777" lon="4.67047">
        <ele>412.54</ele>
        <time>2020-07-17T08:00:54Z</time>
      </trkpt>
      <trkpt lat="44.83792" lon="4.67049">
        <ele>416.87</ele>
        <time>2020-07-17T08:01:08Z</time>
      </trkpt>
      <trkpt lat="44.838" lon="4.67047">
        <ele>420.23</ele>
        <time>2020-07-17T08:01:16Z</time>
      </trkpt>
      <trkpt lat="44.83821" lon="4.67044">
        <ele>422.64</ele>
        <time>2020-07-17T08:01:34Z</time>
      </trkpt>
      <trkpt lat="44.8384" lon="4.67047">
        <ele>422.16</ele>
        <time>2020-07-17T08:01:51Z</time>
      </trkpt>
      <trkpt lat="44.83855" lon="4.67051">
        <ele>419.75</ele>
        <time>2020-07-17T08:02:07Z</time>
      </trkpt>
      <trkpt lat="44.83863" lon="4.67053">
        <ele>419.27</ele>
        <time>2020-07-17T08:02:15Z</time>
      </trkpt>
      <trkpt lat="44.83879" lon="4.67054">
        <ele>419.27</ele>
        <time>2020-07-17T08:02:31Z</time>
      </trkpt>
      <trkpt lat="44.83894" lon="4.67052">
        <ele>420.23</ele>
        <time>2020-07-17T08:02:45Z</time>
      </trkpt>
      <trkpt lat="44.83902" lon="4.67049">
        <ele>420.71</ele>
        <time>2020-07-17T08:02:54Z</time>
      </trkpt>
      <trkpt lat="44.83908" lon="4.67049">
        <ele>421.19</ele>
        <time>2020-07-17T08:02:59Z</time>
      </trkpt>
      <trkpt lat="44.83911" lon="4.6705">
        <ele>421.68</ele>
        <time>2020-07-17T08:03:02Z</time>
      </trkpt>
      <trkpt lat="44.83916" lon="4.6705">
        <ele>421.19</ele>
        <time>2020-07-17T08:03:06Z</time>
      </trkpt>
      <trkpt lat="44.83935" lon="4.67057">
        <ele>423.12</ele>
        <time>2020-07-17T08:03:25Z</time>
      </trkpt>
      <trkpt lat="44.83945" lon="4.67064">
        <ele>424.08</ele>
        <time>2020-07-17T08:03:40Z</time>
      </trkpt>
      <trkpt lat="44.83952" lon="4.67069">
        <ele>425.04</ele>
        <time>2020-07-17T08:03:48Z</time>
      </trkpt>
      <trkpt lat="44.8396" lon="4.67079">
        <ele>426.48</ele>
        <time>2020-07-17T08:03:59Z</time>
      </trkpt>
      <trkpt lat="44.83969" lon="4.67095">
        <ele>427.92</ele>
        <time>2020-07-17T08:04:14Z</time>
      </trkpt>
      <trkpt lat="44.8397" lon="4.67097">
        <ele>427.92</ele>
        <time>2020-07-17T08:04:15Z</time>
      </trkpt>
      <trkpt lat="44.83981" lon="4.67116">
        <ele>429.37</ele>
        <time>2020-07-17T08:04:31Z</time>
      </trkpt>
      <trkpt lat="44.83989" lon="4.67129">
        <ele>426.48</ele>
        <time>2020-07-17T08:04:45Z</time>
      </trkpt>
      <trkpt lat="44.83996" lon="4.67142">
        <ele>427.92</ele>
        <time>2020-07-17T08:05:00Z</time>
      </trkpt>
      <trkpt lat="44.84006" lon="4.67167">
        <ele>430.33</ele>
        <time>2020-07-17T08:05:20Z</time>
      </trkpt>
      <trkpt lat="44.84016" lon="4.6718">
        <ele>431.29</ele>
        <time>2020-07-17T08:05:33Z</time>
      </trkpt>
      <trkpt lat="44.84028" lon="4.67191">
        <ele>434.17</ele>
        <time>2020-07-17T08:05:46Z</time>
      </trkpt>
      <trkpt lat="44.84041" lon="4.67203">
        <ele>435.61</ele>
        <time>2020-07-17T08:06:00Z</time>
      </trkpt>
      <trkpt lat="44.84059" lon="4.67215">
        <ele>438.02</ele>
        <time>2020-07-17T08:06:18Z</time>
      </trkpt>
      <trkpt lat="44.84068" lon="4.67219">
        <ele>438.98</ele>
        <time>2020-07-17T08:06:27Z</time>
      </trkpt>
      <trkpt lat="44.84086" lon="4.6723">
        <ele>440.42</ele>
        <time>2020-07-17T08:06:45Z</time>
      </trkpt>
      <trkpt lat="44.84092" lon="4.67234">
        <ele>440.9</ele>
        <time>2020-07-17T08:06:51Z</time>
      </trkpt>
      <trkpt lat="44.84094" lon="4.67236">
        <ele>441.38</ele>
        <time>2020-07-17T08:06:54Z</time>
      </trkpt>
      <trkpt lat="44.84112" lon="4.67253">
        <ele>442.82</ele>
        <time>2020-07-17T08:07:14Z</time>
      </trkpt>
      <trkpt lat="44.84113" lon="4.67254">
        <ele>442.82</ele>
        <time>2020-07-17T08:07:15Z</time>
      </trkpt>
      <trkpt lat="44.84127" lon="4.67268">
        <ele>445.71</ele>
        <time>2020-07-17T08:07:32Z</time>
      </trkpt>
      <trkpt lat="44.84144" lon="4.67277">
        <ele>447.15</ele>
        <time>2020-07-17T08:07:49Z</time>
      </trkpt>
      <trkpt lat="44.84161" lon="4.67282">
        <ele>449.55</ele>
        <time>2020-07-17T08:08:05Z</time>
      </trkpt>
      <trkpt lat="44.84169" lon="4.67283">
        <ele>450.03</ele>
        <time>2020-07-17T08:08:12Z</time>
      </trkpt>
      <trkpt lat="44.84185" lon="4.67285">
        <ele>452.44</ele>
        <time>2020-07-17T08:08:28Z</time>
      </trkpt>
      <trkpt lat="44.84195" lon="4.67289">
        <ele>451.48</ele>
        <time>2020-07-17T08:08:44Z</time>
      </trkpt>
      <trkpt lat="44.84198" lon="4.67288">
        <ele>451</ele>
        <time>2020-07-17T08:08:53Z</time>
      </trkpt>
      <trkpt lat="44.842" lon="4.67289">
        <ele>451</ele>
        <time>2020-07-17T08:08:55Z</time>
      </trkpt>
      <trkpt lat="44.84216" lon="4.67295">
        <ele>452.92</ele>
        <time>2020-07-17T08:09:11Z</time>
      </trkpt>
      <trkpt lat="44.84233" lon="4.67299">
        <ele>456.28</ele>
        <time>2020-07-17T08:09:27Z</time>
      </trkpt>
      <trkpt lat="44.84253" lon="4.67301">
        <ele>458.69</ele>
        <time>2020-07-17T08:09:46Z</time>
      </trkpt>
      <trkpt lat="44.84256" lon="4.673">
        <ele>459.17</ele>
        <time>2020-07-17T08:09:49Z</time>
      </trkpt>
      <trkpt lat="44.84268" lon="4.67294">
        <ele>461.09</ele>
        <time>2020-07-17T08:10:02Z</time>
      </trkpt>
      <trkpt lat="44.84276" lon="4.67291">
        <ele>462.05</ele>
        <time>2020-07-17T08:10:17Z</time>
      </trkpt>
      <trkpt lat="44.84282" lon="4.67288">
        <ele>463.01</ele>
        <time>2020-07-17T08:10:23Z</time>
      </trkpt>
      <trkpt lat="44.84303" lon="4.67297">
        <ele>464.93</ele>
        <time>2020-07-17T08:10:42Z</time>
      </trkpt>
      <trkpt lat="44.84314" lon="4.67314">
        <ele>467.82</ele>
        <time>2020-07-17T08:10:58Z</time>
      </trkpt>
      <trkpt lat="44.84319" lon="4.67323">
        <ele>469.26</ele>
        <time>2020-07-17T08:11:06Z</time>
      </trkpt>
      <trkpt lat="44.84329" lon="4.67336">
        <ele>470.7</ele>
        <time>2020-07-17T08:11:18Z</time>
      </trkpt>
      <trkpt lat="44.84333" lon="4.67339">
        <ele>471.18</ele>
        <time>2020-07-17T08:11:22Z</time>
      </trkpt>
      <trkpt lat="44.84339" lon="4.67344">
        <ele>470.22</ele>
        <time>2020-07-17T08:11:33Z</time>
      </trkpt>
      <trkpt lat="44.84353" lon="4.67348">
        <ele>470.7</ele>
        <time>2020-07-17T08:11:47Z</time>
      </trkpt>
      <trkpt lat="44.84358" lon="4.67351">
        <ele>470.22</ele>
        <time>2020-07-17T08:11:52Z</time>
      </trkpt>
      <trkpt lat="44.84377" lon="4.67352">
        <ele>472.14</ele>
        <time>2020-07-17T08:12:10Z</time>
      </trkpt>
      <trkpt lat="44.84394" lon="4.6735">
        <ele>473.59</ele>
        <time>2020-07-17T08:12:26Z</time>
      </trkpt>
      <trkpt lat="44.84411" lon="4.67347">
        <ele>475.51</ele>
        <time>2020-07-17T08:12:41Z</time>
      </trkpt>
      <trkpt lat="44.84429" lon="4.67347">
        <ele>477.91</ele>
        <time>2020-07-17T08:12:57Z</time>
      </trkpt>
      <trkpt lat="44.84447" lon="4.6735">
        <ele>479.84</ele>
        <time>2020-07-17T08:13:12Z</time>
      </trkpt>
      <trkpt lat="44.84464" lon="4.67354">
        <ele>483.2</ele>
        <time>2020-07-17T08:13:29Z</time>
      </trkpt>
      <trkpt lat="44.8447" lon="4.67358">
        <ele>483.68</ele>
        <time>2020-07-17T08:13:44Z</time>
      </trkpt>
      <trkpt lat="44.84485" lon="4.67363">
        <ele>485.6</ele>
        <time>2020-07-17T08:14:01Z</time>
      </trkpt>
      <trkpt lat="44.84488" lon="4.67365">
        <ele>486.56</ele>
        <time>2020-07-17T08:14:04Z</time>
      </trkpt>
      <trkpt lat="44.84491" lon="4.6737">
        <ele>485.12</ele>
        <time>2020-07-17T08:14:19Z</time>
      </trkpt>
      <trkpt lat="44.84492" lon="4.67367">
        <ele>480.32</ele>
        <time>2020-07-17T08:14:51Z</time>
      </trkpt>
      <trkpt lat="44.84492" lon="4.67368">
        <ele>479.84</ele>
        <time>2020-07-17T08:15:13Z</time>
      </trkpt>
      <trkpt lat="44.84504" lon="4.67368">
        <ele>482.72</ele>
        <time>2020-07-17T08:15:25Z</time>
      </trkpt>
      <trkpt lat="44.8452" lon="4.67373">
        <ele>486.56</ele>
        <time>2020-07-17T08:15:40Z</time>
      </trkpt>
      <trkpt lat="44.84524" lon="4.67374">
        <ele>487.53</ele>
        <time>2020-07-17T08:15:44Z</time>
      </trkpt>
      <trkpt lat="44.84544" lon="4.67373">
        <ele>491.85</ele>
        <time>2020-07-17T08:16:03Z</time>
      </trkpt>
      <trkpt lat="44.84562" lon="4.67373">
        <ele>493.77</ele>
        <time>2020-07-17T08:16:19Z</time>
      </trkpt>
      <trkpt lat="44.84577" lon="4.67367">
        <ele>496.66</ele>
        <time>2020-07-17T08:16:33Z</time>
      </trkpt>
      <trkpt lat="44.84595" lon="4.67355">
        <ele>500.02</ele>
        <time>2020-07-17T08:16:51Z</time>
      </trkpt>
      <trkpt lat="44.84615" lon="4.67352">
        <ele>503.39</ele>
        <time>2020-07-17T08:17:09Z</time>
      </trkpt>
      <trkpt lat="44.84638" lon="4.67361">
        <ele>504.35</ele>
        <time>2020-07-17T08:17:27Z</time>
      </trkpt>
      <trkpt lat="44.84659" lon="4.67373">
        <ele>503.87</ele>
        <time>2020-07-17T08:17:45Z</time>
      </trkpt>
      <trkpt lat="44.84669" lon="4.67387">
        <ele>506.27</ele>
        <time>2020-07-17T08:18:01Z</time>
      </trkpt>
      <trkpt lat="44.84671" lon="4.6739">
        <ele>504.83</ele>
        <time>2020-07-17T08:18:36Z</time>
      </trkpt>
      <trkpt lat="44.84673" lon="4.67392">
        <ele>505.79</ele>
        <time>2020-07-17T08:18:40Z</time>
      </trkpt>
      <trkpt lat="44.84684" lon="4.67407">
        <ele>509.64</ele>
        <time>2020-07-17T08:18:56Z</time>
      </trkpt>
      <trkpt lat="44.84698" lon="4.67424">
        <ele>510.6</ele>
        <time>2020-07-17T08:19:14Z</time>
      </trkpt>
      <trkpt lat="44.84705" lon="4.67436">
        <ele>512.04</ele>
        <time>2020-07-17T08:19:29Z</time>
      </trkpt>
      <trkpt lat="44.84718" lon="4.67447">
        <ele>514.92</ele>
        <time>2020-07-17T08:19:43Z</time>
      </trkpt>
      <trkpt lat="44.84733" lon="4.67459">
        <ele>517.33</ele>
        <time>2020-07-17T08:20:00Z</time>
      </trkpt>
      <trkpt lat="44.84749" lon="4.67469">
        <ele>521.17</ele>
        <time>2020-07-17T08:20:18Z</time>
      </trkpt>
      <trkpt lat="44.84766" lon="4.67479">
        <ele>522.61</ele>
        <time>2020-07-17T08:20:36Z</time>
      </trkpt>
      <trkpt lat="44.84776" lon="4.67483">
        <ele>524.06</ele>
        <time>2020-07-17T08:20:46Z</time>
      </trkpt>
      <trkpt lat="44.84794" lon="4.67488">
        <ele>526.94</ele>
        <time>2020-07-17T08:21:02Z</time>
      </trkpt>
      <trkpt lat="44.84813" lon="4.67496">
        <ele>528.86</ele>
        <time>2020-07-17T08:21:19Z</time>
      </trkpt>
      <trkpt lat="44.8483" lon="4.67505">
        <ele>531.27</ele>
        <time>2020-07-17T08:21:34Z</time>
      </trkpt>
      <trkpt lat="44.84852" lon="4.67515">
        <ele>535.11</ele>
        <time>2020-07-17T08:21:52Z</time>
      </trkpt>
      <trkpt lat="44.84867" lon="4.67524">
        <ele>539.44</ele>
        <time>2020-07-17T08:22:06Z</time>
      </trkpt>
      <trkpt lat="44.84885" lon="4.67533">
        <ele>542.8</ele>
        <time>2020-07-17T08:22:22Z</time>
      </trkpt>
      <trkpt lat="44.84904" lon="4.67544">
        <ele>543.76</ele>
        <time>2020-07-17T08:22:38Z</time>
      </trkpt>
      <trkpt lat="44.84917" lon="4.6755">
        <ele>545.69</ele>
        <time>2020-07-17T08:22:50Z</time>
      </trkpt>
      <trkpt lat="44.8492" lon="4.67546">
        <ele>545.69</ele>
        <time>2020-07-17T08:22:54Z</time>
      </trkpt>
      <trkpt lat="44.84921" lon="4.67537">
        <ele>546.65</ele>
        <time>2020-07-17T08:23:01Z</time>
      </trkpt>
      <trkpt lat="44.84906" lon="4.67514">
        <ele>548.09</ele>
        <time>2020-07-17T08:23:20Z</time>
      </trkpt>
      <trkpt lat="44.84896" lon="4.67495">
        <ele>551.45</ele>
        <time>2020-07-17T08:23:35Z</time>
      </trkpt>
      <trkpt lat="44.84883" lon="4.67476">
        <ele>553.86</ele>
        <time>2020-07-17T08:23:52Z</time>
      </trkpt>
      <trkpt lat="44.84875" lon="4.67468">
        <ele>554.34</ele>
        <time>2020-07-17T08:24:00Z</time>
      </trkpt>
      <trkpt lat="44.84857" lon="4.6744">
        <ele>554.82</ele>
        <time>2020-07-17T08:24:20Z</time>
      </trkpt>
      <trkpt lat="44.84836" lon="4.6742">
        <ele>556.74</ele>
        <time>2020-07-17T08:24:39Z</time>
      </trkpt>
      <trkpt lat="44.84824" lon="4.67409">
        <ele>557.22</ele>
        <time>2020-07-17T08:24:49Z</time>
      </trkpt>
      <trkpt lat="44.84829" lon="4.67398">
        <ele>559.62</ele>
        <time>2020-07-17T08:24:58Z</time>
      </trkpt>
      <trkpt lat="44.84848" lon="4.67408">
        <ele>563.95</ele>
        <time>2020-07-17T08:25:14Z</time>
      </trkpt>
      <trkpt lat="44.84869" lon="4.67419">
        <ele>564.43</ele>
        <time>2020-07-17T08:25:30Z</time>
      </trkpt>
      <trkpt lat="44.84887" lon="4.67429">
        <ele>566.35</ele>
        <time>2020-07-17T08:25:44Z</time>
      </trkpt>
      <trkpt lat="44.84893" lon="4.67426">
        <ele>567.32</ele>
        <time>2020-07-17T08:25:52Z</time>
      </trkpt>
      <trkpt lat="44.84914" lon="4.67439">
        <ele>571.64</ele>
        <time>2020-07-17T08:26:10Z</time>
      </trkpt>
      <trkpt lat="44.84932" lon="4.67455">
        <ele>574.53</ele>
        <time>2020-07-17T08:26:26Z</time>
      </trkpt>
      <trkpt lat="44.84945" lon="4.67464">
        <ele>575.97</ele>
        <time>2020-07-17T08:26:40Z</time>
      </trkpt>
      <trkpt lat="44.84946" lon="4.67464">
        <ele>576.45</ele>
        <time>2020-07-17T08:26:43Z</time>
      </trkpt>
      <trkpt lat="44.84957" lon="4.6748">
        <ele>577.89</ele>
        <time>2020-07-17T08:26:58Z</time>
      </trkpt>
      <trkpt lat="44.84962" lon="4.67485">
        <ele>578.85</ele>
        <time>2020-07-17T08:27:03Z</time>
      </trkpt>
      <trkpt lat="44.84966" lon="4.67491">
        <ele>578.85</ele>
        <time>2020-07-17T08:27:07Z</time>
      </trkpt>
      <trkpt lat="44.8499" lon="4.6751">
        <ele>576.45</ele>
        <time>2020-07-17T08:27:27Z</time>
      </trkpt>
      <trkpt lat="44.84996" lon="4.67517">
        <ele>576.93</ele>
        <time>2020-07-17T08:27:32Z</time>
      </trkpt>
      <trkpt lat="44.85007" lon="4.67541">
        <ele>579.81</ele>
        <time>2020-07-17T08:27:48Z</time>
      </trkpt>
      <trkpt lat="44.85014" lon="4.67564">
        <ele>583.66</ele>
        <time>2020-07-17T08:28:02Z</time>
      </trkpt>
      <trkpt lat="44.85017" lon="4.67582">
        <ele>586.06</ele>
        <time>2020-07-17T08:28:17Z</time>
      </trkpt>
      <trkpt lat="44.85023" lon="4.67598">
        <ele>586.06</ele>
        <time>2020-07-17T08:28:40Z</time>
      </trkpt>
      <trkpt lat="44.85028" lon="4.67622">
        <ele>590.39</ele>
        <time>2020-07-17T08:28:55Z</time>
      </trkpt>
      <trkpt lat="44.85034" lon="4.67649">
        <ele>595.67</ele>
        <time>2020-07-17T08:29:11Z</time>
      </trkpt>
      <trkpt lat="44.8504" lon="4.67677">
        <ele>599.04</ele>
        <time>2020-07-17T08:29:26Z</time>
      </trkpt>
      <trkpt lat="44.85048" lon="4.67712">
        <ele>599.52</ele>
        <time>2020-07-17T08:29:45Z</time>
      </trkpt>
      <trkpt lat="44.85055" lon="4.67744">
        <ele>598.56</ele>
        <time>2020-07-17T08:30:02Z</time>
      </trkpt>
      <trkpt lat="44.85057" lon="4.67749">
        <ele>597.12</ele>
        <time>2020-07-17T08:30:05Z</time>
      </trkpt>
      <trkpt lat="44.85061" lon="4.67781">
        <ele>593.27</ele>
        <time>2020-07-17T08:30:21Z</time>
      </trkpt>
      <trkpt lat="44.85066" lon="4.67811">
        <ele>592.31</ele>
        <time>2020-07-17T08:30:37Z</time>
      </trkpt>
      <trkpt lat="44.85071" lon="4.67827">
        <ele>591.83</ele>
        <time>2020-07-17T08:30:52Z</time>
      </trkpt>
      <trkpt lat="44.85072" lon="4.67829">
        <ele>590.87</ele>
        <time>2020-07-17T08:31:11Z</time>
      </trkpt>
      <trkpt lat="44.85069" lon="4.67836">
        <ele>588.95</ele>
        <time>2020-07-17T08:31:29Z</time>
      </trkpt>
      <trkpt lat="44.85067" lon="4.67844">
        <ele>589.43</ele>
        <time>2020-07-17T08:31:36Z</time>
      </trkpt>
      <trkpt lat="44.85062" lon="4.6786">
        <ele>588.95</ele>
        <time>2020-07-17T08:31:46Z</time>
      </trkpt>
      <trkpt lat="44.85056" lon="4.67868">
        <ele>588.95</ele>
        <time>2020-07-17T08:31:56Z</time>
      </trkpt>
      <trkpt lat="44.85045" lon="4.67882">
        <ele>587.5</ele>
        <time>2020-07-17T08:32:11Z</time>
      </trkpt>
      <trkpt lat="44.85044" lon="4.67884">
        <ele>586.06</ele>
        <time>2020-07-17T08:32:24Z</time>
      </trkpt>
      <trkpt lat="44.85043" lon="4.67883">
        <ele>584.14</ele>
        <time>2020-07-17T08:33:04Z</time>
      </trkpt>
      <trkpt lat="44.85042" lon="4.67881">
        <ele>587.02</ele>
        <time>2020-07-17T08:33:38Z</time>
      </trkpt>
      <trkpt lat="44.85043" lon="4.67885">
        <ele>587.98</ele>
        <time>2020-07-17T08:33:48Z</time>
      </trkpt>
      <trkpt lat="44.85035" lon="4.67897">
        <ele>587.5</ele>
        <time>2020-07-17T08:34:02Z</time>
      </trkpt>
      <trkpt lat="44.85035" lon="4.67899">
        <ele>585.1</ele>
        <time>2020-07-17T08:34:09Z</time>
      </trkpt>
      <trkpt lat="44.85031" lon="4.67901">
        <ele>583.66</ele>
        <time>2020-07-17T08:34:14Z</time>
      </trkpt>
      <trkpt lat="44.85028" lon="4.67905">
        <ele>583.18</ele>
        <time>2020-07-17T08:34:18Z</time>
      </trkpt>
      <trkpt lat="44.85018" lon="4.67921">
        <ele>581.25</ele>
        <time>2020-07-17T08:34:30Z</time>
      </trkpt>
      <trkpt lat="44.85014" lon="4.6793">
        <ele>580.77</ele>
        <time>2020-07-17T08:34:37Z</time>
      </trkpt>
      <trkpt lat="44.85011" lon="4.67935">
        <ele>580.77</ele>
        <time>2020-07-17T08:34:41Z</time>
      </trkpt>
      <trkpt lat="44.85003" lon="4.6795">
        <ele>580.29</ele>
        <time>2020-07-17T08:34:57Z</time>
      </trkpt>
      <trkpt lat="44.84997" lon="4.67964">
        <ele>577.41</ele>
        <time>2020-07-17T08:35:09Z</time>
      </trkpt>
      <trkpt lat="44.84994" lon="4.67984">
        <ele>576.93</ele>
        <time>2020-07-17T08:35:24Z</time>
      </trkpt>
      <trkpt lat="44.84993" lon="4.68007">
        <ele>580.77</ele>
        <time>2020-07-17T08:35:40Z</time>
      </trkpt>
      <trkpt lat="44.84989" lon="4.68021">
        <ele>582.22</ele>
        <time>2020-07-17T08:35:52Z</time>
      </trkpt>
      <trkpt lat="44.84986" lon="4.68026">
        <ele>583.66</ele>
        <time>2020-07-17T08:35:57Z</time>
      </trkpt>
      <trkpt lat="44.84977" lon="4.68027">
        <ele>587.5</ele>
        <time>2020-07-17T08:36:10Z</time>
      </trkpt>
      <trkpt lat="44.84967" lon="4.68034">
        <ele>590.87</ele>
        <time>2020-07-17T08:36:23Z</time>
      </trkpt>
      <trkpt lat="44.84959" lon="4.68046">
        <ele>591.83</ele>
        <time>2020-07-17T08:36:38Z</time>
      </trkpt>
      <trkpt lat="44.84954" lon="4.68066">
        <ele>582.7</ele>
        <time>2020-07-17T08:36:50Z</time>
      </trkpt>
      <trkpt lat="44.84936" lon="4.68072">
        <ele>581.25</ele>
        <time>2020-07-17T08:37:04Z</time>
      </trkpt>
      <trkpt lat="44.84918" lon="4.68076">
        <ele>583.18</ele>
        <time>2020-07-17T08:37:22Z</time>
      </trkpt>
      <trkpt lat="44.84894" lon="4.68078">
        <ele>580.29</ele>
        <time>2020-07-17T08:37:38Z</time>
      </trkpt>
      <trkpt lat="44.84868" lon="4.68083">
        <ele>575.01</ele>
        <time>2020-07-17T08:37:55Z</time>
      </trkpt>
      <trkpt lat="44.84846" lon="4.68088">
        <ele>571.64</ele>
        <time>2020-07-17T08:38:11Z</time>
      </trkpt>
      <trkpt lat="44.84818" lon="4.68088">
        <ele>572.6</ele>
        <time>2020-07-17T08:38:30Z</time>
      </trkpt>
      <trkpt lat="44.84795" lon="4.68096">
        <ele>573.56</ele>
        <time>2020-07-17T08:38:48Z</time>
      </trkpt>
      <trkpt lat="44.84779" lon="4.68098">
        <ele>573.08</ele>
        <time>2020-07-17T08:39:02Z</time>
      </trkpt>
      <trkpt lat="44.84772" lon="4.68099">
        <ele>572.6</ele>
        <time>2020-07-17T08:39:18Z</time>
      </trkpt>
      <trkpt lat="44.84751" lon="4.68092">
        <ele>566.35</ele>
        <time>2020-07-17T08:39:29Z</time>
      </trkpt>
      <trkpt lat="44.84741" lon="4.68093">
        <ele>561.07</ele>
        <time>2020-07-17T08:39:45Z</time>
      </trkpt>
      <trkpt lat="44.84738" lon="4.68101">
        <ele>557.7</ele>
        <time>2020-07-17T08:39:54Z</time>
      </trkpt>
      <trkpt lat="44.84729" lon="4.68114">
        <ele>555.3</ele>
        <time>2020-07-17T08:40:07Z</time>
      </trkpt>
      <trkpt lat="44.84715" lon="4.68129">
        <ele>554.82</ele>
        <time>2020-07-17T08:40:25Z</time>
      </trkpt>
      <trkpt lat="44.84696" lon="4.6815">
        <ele>559.14</ele>
        <time>2020-07-17T08:40:43Z</time>
      </trkpt>
      <trkpt lat="44.84682" lon="4.68167">
        <ele>561.55</ele>
        <time>2020-07-17T08:40:59Z</time>
      </trkpt>
      <trkpt lat="44.8467" lon="4.68181">
        <ele>564.43</ele>
        <time>2020-07-17T08:41:12Z</time>
      </trkpt>
      <trkpt lat="44.84656" lon="4.68192">
        <ele>562.99</ele>
        <time>2020-07-17T08:41:27Z</time>
      </trkpt>
      <trkpt lat="44.84643" lon="4.68205">
        <ele>562.99</ele>
        <time>2020-07-17T08:41:44Z</time>
      </trkpt>
      <trkpt lat="44.84611" lon="4.68231">
        <ele>553.86</ele>
        <time>2020-07-17T08:42:02Z</time>
      </trkpt>
      <trkpt lat="44.84586" lon="4.68241">
        <ele>548.09</ele>
        <time>2020-07-17T08:42:19Z</time>
      </trkpt>
      <trkpt lat="44.84566" lon="4.68252">
        <ele>545.69</ele>
        <time>2020-07-17T08:42:36Z</time>
      </trkpt>
      <trkpt lat="44.84538" lon="4.68255">
        <ele>543.76</ele>
        <time>2020-07-17T08:42:51Z</time>
      </trkpt>
      <trkpt lat="44.84514" lon="4.68256">
        <ele>541.84</ele>
        <time>2020-07-17T08:43:08Z</time>
      </trkpt>
      <trkpt lat="44.84494" lon="4.68264">
        <ele>539.44</ele>
        <time>2020-07-17T08:43:22Z</time>
      </trkpt>
      <trkpt lat="44.84472" lon="4.68266">
        <ele>535.59</ele>
        <time>2020-07-17T08:43:37Z</time>
      </trkpt>
      <trkpt lat="44.84452" lon="4.68268">
        <ele>533.19</ele>
        <time>2020-07-17T08:43:53Z</time>
      </trkpt>
      <trkpt lat="44.84433" lon="4.68267">
        <ele>529.34</ele>
        <time>2020-07-17T08:44:08Z</time>
      </trkpt>
      <trkpt lat="44.84415" lon="4.68268">
        <ele>526.94</ele>
        <time>2020-07-17T08:44:22Z</time>
      </trkpt>
      <trkpt lat="44.84397" lon="4.6827">
        <ele>521.65</ele>
        <time>2020-07-17T08:44:37Z</time>
      </trkpt>
      <trkpt lat="44.84376" lon="4.68281">
        <ele>521.65</ele>
        <time>2020-07-17T08:44:55Z</time>
      </trkpt>
      <trkpt lat="44.8435" lon="4.68283">
        <ele>521.65</ele>
        <time>2020-07-17T08:45:14Z</time>
      </trkpt>
      <trkpt lat="44.84328" lon="4.68283">
        <ele>525.98</ele>
        <time>2020-07-17T08:45:32Z</time>
      </trkpt>
      <trkpt lat="44.84305" lon="4.6828">
        <ele>526.94</ele>
        <time>2020-07-17T08:45:48Z</time>
      </trkpt>
      <trkpt lat="44.84274" lon="4.68271">
        <ele>518.77</ele>
        <time>2020-07-17T08:46:06Z</time>
      </trkpt>
      <trkpt lat="44.84243" lon="4.68271">
        <ele>517.33</ele>
        <time>2020-07-17T08:46:25Z</time>
      </trkpt>
      <trkpt lat="44.84227" lon="4.68264">
        <ele>522.13</ele>
        <time>2020-07-17T08:46:40Z</time>
      </trkpt>
      <trkpt lat="44.84212" lon="4.68258">
        <ele>527.42</ele>
        <time>2020-07-17T08:46:55Z</time>
      </trkpt>
      <trkpt lat="44.84184" lon="4.68254">
        <ele>526.94</ele>
        <time>2020-07-17T08:47:12Z</time>
      </trkpt>
      <trkpt lat="44.84162" lon="4.68263">
        <ele>521.17</ele>
        <time>2020-07-17T08:47:25Z</time>
      </trkpt>
      <trkpt lat="44.84149" lon="4.68254">
        <ele>516.85</ele>
        <time>2020-07-17T08:47:39Z</time>
      </trkpt>
      <trkpt lat="44.84139" lon="4.68249">
        <ele>518.77</ele>
        <time>2020-07-17T08:47:55Z</time>
      </trkpt>
      <trkpt lat="44.84128" lon="4.68258">
        <ele>526.46</ele>
        <time>2020-07-17T08:48:10Z</time>
      </trkpt>
      <trkpt lat="44.84114" lon="4.68263">
        <ele>526.94</ele>
        <time>2020-07-17T08:48:22Z</time>
      </trkpt>
      <trkpt lat="44.84097" lon="4.68278">
        <ele>523.09</ele>
        <time>2020-07-17T08:48:35Z</time>
      </trkpt>
      <trkpt lat="44.84077" lon="4.68287">
        <ele>516.37</ele>
        <time>2020-07-17T08:48:48Z</time>
      </trkpt>
      <trkpt lat="44.84054" lon="4.683">
        <ele>504.83</ele>
        <time>2020-07-17T08:49:03Z</time>
      </trkpt>
      <trkpt lat="44.84043" lon="4.683">
        <ele>499.54</ele>
        <time>2020-07-17T08:49:07Z</time>
      </trkpt>
      <trkpt lat="44.84028" lon="4.68326">
        <ele>495.22</ele>
        <time>2020-07-17T08:49:22Z</time>
      </trkpt>
      <trkpt lat="44.84015" lon="4.68348">
        <ele>491.85</ele>
        <time>2020-07-17T08:49:38Z</time>
      </trkpt>
      <trkpt lat="44.84005" lon="4.68381">
        <ele>484.16</ele>
        <time>2020-07-17T08:49:57Z</time>
      </trkpt>
      <trkpt lat="44.84006" lon="4.68407">
        <ele>481.28</ele>
        <time>2020-07-17T08:50:12Z</time>
      </trkpt>
      <trkpt lat="44.84005" lon="4.68422">
        <ele>478.39</ele>
        <time>2020-07-17T08:50:24Z</time>
      </trkpt>
      <trkpt lat="44.84002" lon="4.68437">
        <ele>475.51</ele>
        <time>2020-07-17T08:50:37Z</time>
      </trkpt>
      <trkpt lat="44.83998" lon="4.6844">
        <ele>471.66</ele>
        <time>2020-07-17T08:50:52Z</time>
      </trkpt>
      <trkpt lat="44.83993" lon="4.68437">
        <ele>467.82</ele>
        <time>2020-07-17T08:51:08Z</time>
      </trkpt>
      <trkpt lat="44.83991" lon="4.68436">
        <ele>465.42</ele>
        <time>2020-07-17T08:51:52Z</time>
      </trkpt>
      <trkpt lat="44.8399" lon="4.68429">
        <ele>461.09</ele>
        <time>2020-07-17T08:52:25Z</time>
      </trkpt>
      <trkpt lat="44.83987" lon="4.68419">
        <ele>460.13</ele>
        <time>2020-07-17T08:52:31Z</time>
      </trkpt>
      <trkpt lat="44.83986" lon="4.68396">
        <ele>458.21</ele>
        <time>2020-07-17T08:52:44Z</time>
      </trkpt>
      <trkpt lat="44.83987" lon="4.68372">
        <ele>457.24</ele>
        <time>2020-07-17T08:52:58Z</time>
      </trkpt>
      <trkpt lat="44.83988" lon="4.68342">
        <ele>457.72</ele>
        <time>2020-07-17T08:53:14Z</time>
      </trkpt>
      <trkpt lat="44.83989" lon="4.68335">
        <ele>458.21</ele>
        <time>2020-07-17T08:53:18Z</time>
      </trkpt>
      <trkpt lat="44.83995" lon="4.68304">
        <ele>459.65</ele>
        <time>2020-07-17T08:53:35Z</time>
      </trkpt>
      <trkpt lat="44.83999" lon="4.68275">
        <ele>458.21</ele>
        <time>2020-07-17T08:53:50Z</time>
      </trkpt>
      <trkpt lat="44.83998" lon="4.68271">
        <ele>457.24</ele>
        <time>2020-07-17T08:53:55Z</time>
      </trkpt>
      <trkpt lat="44.83996" lon="4.68264">
        <ele>457.24</ele>
        <time>2020-07-17T08:53:59Z</time>
      </trkpt>
      <trkpt lat="44.83993" lon="4.68249">
        <ele>455.8</ele>
        <time>2020-07-17T08:54:14Z</time>
      </trkpt>
      <trkpt lat="44.83992" lon="4.68245">
        <ele>453.88</ele>
        <time>2020-07-17T08:54:28Z</time>
      </trkpt>
      <trkpt lat="44.83991" lon="4.6824">
        <ele>453.4</ele>
        <time>2020-07-17T08:54:32Z</time>
      </trkpt>
      <trkpt lat="44.83984" lon="4.68213">
        <ele>451</ele>
        <time>2020-07-17T08:54:48Z</time>
      </trkpt>
      <trkpt lat="44.83979" lon="4.68201">
        <ele>451.96</ele>
        <time>2020-07-17T08:54:57Z</time>
      </trkpt>
      <trkpt lat="44.83975" lon="4.68196">
        <ele>453.4</ele>
        <time>2020-07-17T08:55:01Z</time>
      </trkpt>
      <trkpt lat="44.83962" lon="4.68172">
        <ele>458.21</ele>
        <time>2020-07-17T08:55:18Z</time>
      </trkpt>
      <trkpt lat="44.83958" lon="4.68157">
        <ele>459.65</ele>
        <time>2020-07-17T08:55:26Z</time>
      </trkpt>
      <trkpt lat="44.8396" lon="4.68148">
        <ele>460.61</ele>
        <time>2020-07-17T08:55:43Z</time>
      </trkpt>
      <trkpt lat="44.83962" lon="4.68146">
        <ele>459.17</ele>
        <time>2020-07-17T08:56:14Z</time>
      </trkpt>
      <trkpt lat="44.83964" lon="4.68131">
        <ele>457.24</ele>
        <time>2020-07-17T08:56:32Z</time>
      </trkpt>
      <trkpt lat="44.83983" lon="4.68113">
        <ele>452.44</ele>
        <time>2020-07-17T08:56:45Z</time>
      </trkpt>
      <trkpt lat="44.83989" lon="4.68105">
        <ele>449.55</ele>
        <time>2020-07-17T08:57:00Z</time>
      </trkpt>
      <trkpt lat="44.83997" lon="4.68097">
        <ele>448.59</ele>
        <time>2020-07-17T08:57:17Z</time>
      </trkpt>
      <trkpt lat="44.83992" lon="4.68092">
        <ele>445.23</ele>
        <time>2020-07-17T08:57:34Z</time>
      </trkpt>
      <trkpt lat="44.8398" lon="4.68089">
        <ele>442.82</ele>
        <time>2020-07-17T08:57:52Z</time>
      </trkpt>
      <trkpt lat="44.83978" lon="4.68084">
        <ele>441.86</ele>
        <time>2020-07-17T08:58:04Z</time>
      </trkpt>
      <trkpt lat="44.83971" lon="4.68082">
        <ele>451</ele>
        <time>2020-07-17T08:58:18Z</time>
      </trkpt>
      <trkpt lat="44.83958" lon="4.68078">
        <ele>457.24</ele>
        <time>2020-07-17T08:58:31Z</time>
      </trkpt>
      <trkpt lat="44.83936" lon="4.68076">
        <ele>452.92</ele>
        <time>2020-07-17T08:58:46Z</time>
      </trkpt>
      <trkpt lat="44.83922" lon="4.68077">
        <ele>451</ele>
        <time>2020-07-17T08:59:04Z</time>
      </trkpt>
      <trkpt lat="44.83914" lon="4.68079">
        <ele>449.07</ele>
        <time>2020-07-17T08:59:11Z</time>
      </trkpt>
      <trkpt lat="44.83909" lon="4.68091">
        <ele>447.63</ele>
        <time>2020-07-17T08:59:25Z</time>
      </trkpt>
      <trkpt lat="44.83903" lon="4.68092">
        <ele>443.31</ele>
        <time>2020-07-17T08:59:28Z</time>
      </trkpt>
      <trkpt lat="44.8389" lon="4.68083">
        <ele>439.46</ele>
        <time>2020-07-17T08:59:36Z</time>
      </trkpt>
      <trkpt lat="44.83889" lon="4.68078">
        <ele>439.94</ele>
        <time>2020-07-17T08:59:39Z</time>
      </trkpt>
      <trkpt lat="44.83901" lon="4.68056">
        <ele>438.02</ele>
        <time>2020-07-17T08:59:53Z</time>
      </trkpt>
      <trkpt lat="44.83909" lon="4.6803">
        <ele>435.13</ele>
        <time>2020-07-17T09:00:11Z</time>
      </trkpt>
      <trkpt lat="44.83912" lon="4.68014">
        <ele>433.69</ele>
        <time>2020-07-17T09:00:25Z</time>
      </trkpt>
      <trkpt lat="44.83914" lon="4.67995">
        <ele>431.29</ele>
        <time>2020-07-17T09:00:38Z</time>
      </trkpt>
      <trkpt lat="44.83906" lon="4.67974">
        <ele>430.81</ele>
        <time>2020-07-17T09:00:53Z</time>
      </trkpt>
      <trkpt lat="44.83898" lon="4.67961">
        <ele>427.92</ele>
        <time>2020-07-17T09:01:07Z</time>
      </trkpt>
      <trkpt lat="44.83891" lon="4.67952">
        <ele>425.52</ele>
        <time>2020-07-17T09:01:21Z</time>
      </trkpt>
      <trkpt lat="44.83878" lon="4.67938">
        <ele>424.56</ele>
        <time>2020-07-17T09:01:31Z</time>
      </trkpt>
      <trkpt lat="44.83884" lon="4.6792">
        <ele>424.08</ele>
        <time>2020-07-17T09:01:45Z</time>
      </trkpt>
      <trkpt lat="44.83898" lon="4.67904">
        <ele>424.56</ele>
        <time>2020-07-17T09:02:00Z</time>
      </trkpt>
      <trkpt lat="44.83916" lon="4.67888">
        <ele>424.08</ele>
        <time>2020-07-17T09:02:15Z</time>
      </trkpt>
      <trkpt lat="44.83916" lon="4.67887">
        <ele>423.6</ele>
        <time>2020-07-17T09:02:16Z</time>
      </trkpt>
      <trkpt lat="44.83916" lon="4.67873">
        <ele>426.48</ele>
        <time>2020-07-17T09:02:29Z</time>
      </trkpt>
      <trkpt lat="44.83913" lon="4.67879">
        <ele>425.52</ele>
        <time>2020-07-17T09:02:45Z</time>
      </trkpt>
      <trkpt lat="44.83904" lon="4.6788">
        <ele>434.65</ele>
        <time>2020-07-17T09:03:01Z</time>
      </trkpt>
      <trkpt lat="44.83886" lon="4.67875">
        <ele>434.65</ele>
        <time>2020-07-17T09:03:14Z</time>
      </trkpt>
      <trkpt lat="44.83862" lon="4.67879">
        <ele>431.29</ele>
        <time>2020-07-17T09:03:28Z</time>
      </trkpt>
      <trkpt lat="44.83851" lon="4.67885">
        <ele>437.06</ele>
        <time>2020-07-17T09:03:42Z</time>
      </trkpt>
      <trkpt lat="44.83822" lon="4.6789">
        <ele>428.4</ele>
        <time>2020-07-17T09:04:00Z</time>
      </trkpt>
      <trkpt lat="44.83794" lon="4.67896">
        <ele>423.6</ele>
        <time>2020-07-17T09:04:17Z</time>
      </trkpt>
      <trkpt lat="44.83774" lon="4.67907">
        <ele>422.64</ele>
        <time>2020-07-17T09:04:35Z</time>
      </trkpt>
      <trkpt lat="44.83753" lon="4.679">
        <ele>421.68</ele>
        <time>2020-07-17T09:04:51Z</time>
      </trkpt>
      <trkpt lat="44.83726" lon="4.67883">
        <ele>418.79</ele>
        <time>2020-07-17T09:05:07Z</time>
      </trkpt>
      <trkpt lat="44.837" lon="4.6789">
        <ele>405.81</ele>
        <time>2020-07-17T09:05:22Z</time>
      </trkpt>
      <trkpt lat="44.83684" lon="4.67885">
        <ele>401.01</ele>
        <time>2020-07-17T09:05:35Z</time>
      </trkpt>
      <trkpt lat="44.83675" lon="4.67885">
        <ele>401.01</ele>
        <time>2020-07-17T09:05:38Z</time>
      </trkpt>
      <trkpt lat="44.83644" lon="4.67888">
        <ele>396.68</ele>
        <time>2020-07-17T09:05:54Z</time>
      </trkpt>
      <trkpt lat="44.83627" lon="4.67894">
        <ele>386.11</ele>
        <time>2020-07-17T09:06:13Z</time>
      </trkpt>
      <trkpt lat="44.83609" lon="4.67884">
        <ele>382.26</ele>
        <time>2020-07-17T09:06:29Z</time>
      </trkpt>
      <trkpt lat="44.83582" lon="4.67877">
        <ele>376.97</ele>
        <time>2020-07-17T09:06:43Z</time>
      </trkpt>
      <trkpt lat="44.83564" lon="4.6787">
        <ele>371.21</ele>
        <time>2020-07-17T09:06:57Z</time>
      </trkpt>
      <trkpt lat="44.83537" lon="4.67874">
        <ele>372.17</ele>
        <time>2020-07-17T09:07:13Z</time>
      </trkpt>
      <trkpt lat="44.83514" lon="4.67869">
        <ele>369.28</ele>
        <time>2020-07-17T09:07:26Z</time>
      </trkpt>
      <trkpt lat="44.83493" lon="4.67883">
        <ele>377.94</ele>
        <time>2020-07-17T09:07:44Z</time>
      </trkpt>
      <trkpt lat="44.83479" lon="4.67889">
        <ele>386.59</ele>
        <time>2020-07-17T09:07:59Z</time>
      </trkpt>
      <trkpt lat="44.83471" lon="4.67906">
        <ele>385.63</ele>
        <time>2020-07-17T09:08:13Z</time>
      </trkpt>
      <trkpt lat="44.83465" lon="4.6793">
        <ele>371.69</ele>
        <time>2020-07-17T09:08:25Z</time>
      </trkpt>
      <trkpt lat="44.83451" lon="4.67946">
        <ele>343.33</ele>
        <time>2020-07-17T09:08:39Z</time>
      </trkpt>
      <trkpt lat="44.83444" lon="4.67939">
        <ele>336.12</ele>
        <time>2020-07-17T09:08:44Z</time>
      </trkpt>
      <trkpt lat="44.83446" lon="4.67945">
        <ele>334.68</ele>
        <time>2020-07-17T09:08:56Z</time>
      </trkpt>
      <trkpt lat="44.83455" lon="4.67953">
        <ele>334.2</ele>
        <time>2020-07-17T09:09:07Z</time>
      </trkpt>
      <trkpt lat="44.83461" lon="4.67955">
        <ele>333.23</ele>
        <time>2020-07-17T09:09:13Z</time>
      </trkpt>
      <trkpt lat="44.83471" lon="4.67963">
        <ele>333.71</ele>
        <time>2020-07-17T09:09:22Z</time>
      </trkpt>
      <trkpt lat="44.83483" lon="4.67979">
        <ele>330.35</ele>
        <time>2020-07-17T09:09:35Z</time>
      </trkpt>
      <trkpt lat="44.83489" lon="4.67989">
        <ele>328.91</ele>
        <time>2020-07-17T09:09:40Z</time>
      </trkpt>
      <trkpt lat="44.83502" lon="4.6802">
        <ele>327.47</ele>
        <time>2020-07-17T09:09:56Z</time>
      </trkpt>
      <trkpt lat="44.83519" lon="4.68036">
        <ele>326.5</ele>
        <time>2020-07-17T09:10:08Z</time>
      </trkpt>
      <trkpt lat="44.83526" lon="4.68045">
        <ele>326.5</ele>
        <time>2020-07-17T09:10:14Z</time>
      </trkpt>
      <trkpt lat="44.83532" lon="4.68053">
        <ele>325.54</ele>
        <time>2020-07-17T09:10:20Z</time>
      </trkpt>
      <trkpt lat="44.83547" lon="4.68076">
        <ele>324.58</ele>
        <time>2020-07-17T09:10:36Z</time>
      </trkpt>
      <trkpt lat="44.83561" lon="4.68096">
        <ele>322.18</ele>
        <time>2020-07-17T09:10:49Z</time>
      </trkpt>
      <trkpt lat="44.83581" lon="4.68109">
        <ele>320.26</ele>
        <time>2020-07-17T09:11:02Z</time>
      </trkpt>
      <trkpt lat="44.83603" lon="4.68114">
        <ele>319.78</ele>
        <time>2020-07-17T09:11:17Z</time>
      </trkpt>
      <trkpt lat="44.83605" lon="4.68114">
        <ele>320.26</ele>
        <time>2020-07-17T09:11:19Z</time>
      </trkpt>
      <trkpt lat="44.83625" lon="4.6813">
        <ele>319.3</ele>
        <time>2020-07-17T09:11:34Z</time>
      </trkpt>
      <trkpt lat="44.83631" lon="4.68141">
        <ele>318.81</ele>
        <time>2020-07-17T09:11:48Z</time>
      </trkpt>
      <trkpt lat="44.83624" lon="4.6815">
        <ele>321.22</ele>
        <time>2020-07-17T09:12:00Z</time>
      </trkpt>
      <trkpt lat="44.83622" lon="4.68158">
        <ele>322.18</ele>
        <time>2020-07-17T09:12:06Z</time>
      </trkpt>
      <trkpt lat="44.83607" lon="4.68171">
        <ele>324.1</ele>
        <time>2020-07-17T09:12:18Z</time>
      </trkpt>
      <trkpt lat="44.83596" lon="4.68189">
        <ele>323.14</ele>
        <time>2020-07-17T09:12:32Z</time>
      </trkpt>
      <trkpt lat="44.83592" lon="4.68214">
        <ele>322.18</ele>
        <time>2020-07-17T09:12:47Z</time>
      </trkpt>
      <trkpt lat="44.8359" lon="4.68224">
        <ele>322.18</ele>
        <time>2020-07-17T09:12:53Z</time>
      </trkpt>
      <trkpt lat="44.83579" lon="4.68247">
        <ele>321.22</ele>
        <time>2020-07-17T09:13:08Z</time>
      </trkpt>
      <trkpt lat="44.83572" lon="4.68267">
        <ele>320.26</ele>
        <time>2020-07-17T09:13:24Z</time>
      </trkpt>
      <trkpt lat="44.83568" lon="4.68296">
        <ele>307.28</ele>
        <time>2020-07-17T09:13:45Z</time>
      </trkpt>
      <trkpt lat="44.83573" lon="4.68299">
        <ele>307.28</ele>
        <time>2020-07-17T09:14:09Z</time>
      </trkpt>
      <trkpt lat="44.8357" lon="4.68295">
        <ele>302.95</ele>
        <time>2020-07-17T09:14:33Z</time>
      </trkpt>
      <trkpt lat="44.83564" lon="4.683">
        <ele>304.39</ele>
        <time>2020-07-17T09:14:43Z</time>
      </trkpt>
      <trkpt lat="44.83551" lon="4.68316">
        <ele>313.53</ele>
        <time>2020-07-17T09:14:59Z</time>
      </trkpt>
      <trkpt lat="44.83533" lon="4.68328">
        <ele>312.57</ele>
        <time>2020-07-17T09:15:13Z</time>
      </trkpt>
      <trkpt lat="44.83515" lon="4.68346">
        <ele>306.8</ele>
        <time>2020-07-17T09:15:28Z</time>
      </trkpt>
      <trkpt lat="44.83492" lon="4.68351">
        <ele>303.91</ele>
        <time>2020-07-17T09:15:43Z</time>
      </trkpt>
      <trkpt lat="44.83469" lon="4.68359">
        <ele>301.03</ele>
        <time>2020-07-17T09:15:59Z</time>
      </trkpt>
      <trkpt lat="44.83454" lon="4.68369">
        <ele>299.11</ele>
        <time>2020-07-17T09:16:13Z</time>
      </trkpt>
      <trkpt lat="44.83438" lon="4.68384">
        <ele>298.15</ele>
        <time>2020-07-17T09:16:28Z</time>
      </trkpt>
      <trkpt lat="44.83431" lon="4.68385">
        <ele>297.18</ele>
        <time>2020-07-17T09:16:42Z</time>
      </trkpt>
      <trkpt lat="44.83433" lon="4.68387">
        <ele>295.74</ele>
        <time>2020-07-17T09:16:57Z</time>
      </trkpt>
      <trkpt lat="44.83432" lon="4.68387">
        <ele>294.3</ele>
        <time>2020-07-17T09:17:12Z</time>
      </trkpt>
      <trkpt lat="44.83431" lon="4.68386">
        <ele>293.34</ele>
        <time>2020-07-17T09:17:31Z</time>
      </trkpt>
      <trkpt lat="44.83433" lon="4.68387">
        <ele>293.82</ele>
        <time>2020-07-17T09:17:54Z</time>
      </trkpt>
      <trkpt lat="44.83431" lon="4.68386">
        <ele>294.3</ele>
        <time>2020-07-17T09:18:14Z</time>
      </trkpt>
      <trkpt lat="44.83432" lon="4.68386">
        <ele>295.26</ele>
        <time>2020-07-17T09:18:25Z</time>
      </trkpt>
      <trkpt lat="44.83433" lon="4.68384">
        <ele>294.78</ele>
        <time>2020-07-17T09:18:45Z</time>
      </trkpt>
      <trkpt lat="44.83435" lon="4.68382">
        <ele>294.78</ele>
        <time>2020-07-17T09:19:07Z</time>
      </trkpt>
      <trkpt lat="44.83433" lon="4.68386">
        <ele>291.9</ele>
        <time>2020-07-17T09:19:25Z</time>
      </trkpt>
      <trkpt lat="44.83431" lon="4.68387">
        <ele>291.42</ele>
        <time>2020-07-17T09:19:40Z</time>
      </trkpt>
      <trkpt lat="44.83433" lon="4.68383">
        <ele>292.38</ele>
        <time>2020-07-17T09:20:02Z</time>
      </trkpt>
      <trkpt lat="44.8343" lon="4.68387">
        <ele>292.86</ele>
        <time>2020-07-17T09:20:28Z</time>
      </trkpt>
      <trkpt lat="44.83429" lon="4.68386">
        <ele>292.38</ele>
        <time>2020-07-17T09:20:50Z</time>
      </trkpt>
      <trkpt lat="44.8343" lon="4.68385">
        <ele>293.34</ele>
        <time>2020-07-17T09:21:07Z</time>
      </trkpt>
      <trkpt lat="44.83429" lon="4.68386">
        <ele>294.3</ele>
        <time>2020-07-17T09:21:29Z</time>
      </trkpt>
      <trkpt lat="44.83428" lon="4.68387">
        <ele>293.34</ele>
        <time>2020-07-17T09:21:44Z</time>
      </trkpt>
      <trkpt lat="44.83428" lon="4.6839">
        <ele>291.9</ele>
        <time>2020-07-17T09:22:08Z</time>
      </trkpt>
      <trkpt lat="44.83431" lon="4.6839">
        <ele>290.94</ele>
        <time>2020-07-17T09:22:37Z</time>
      </trkpt>
      <trkpt lat="44.83433" lon="4.68391">
        <ele>292.38</ele>
        <time>2020-07-17T09:22:59Z</time>
      </trkpt>
      <trkpt lat="44.83433" lon="4.68388">
        <ele>295.26</ele>
        <time>2020-07-17T09:23:19Z</time>
      </trkpt>
      <trkpt lat="44.83432" lon="4.68388">
        <ele>292.38</ele>
        <time>2020-07-17T09:23:40Z</time>
      </trkpt>
      <trkpt lat="44.83433" lon="4.68389">
        <ele>291.42</ele>
        <time>2020-07-17T09:24:02Z</time>
      </trkpt>
      <trkpt lat="44.83432" lon="4.6839">
        <ele>290.46</ele>
        <time>2020-07-17T09:24:32Z</time>
      </trkpt>
      <trkpt lat="44.83433" lon="4.68392">
        <ele>288.53</ele>
        <time>2020-07-17T09:25:03Z</time>
      </trkpt>
      <trkpt lat="44.83433" lon="4.68392">
        <ele>289.49</ele>
        <time>2020-07-17T09:25:31Z</time>
      </trkpt>
      <trkpt lat="44.83434" lon="4.68392">
        <ele>290.94</ele>
        <time>2020-07-17T09:25:56Z</time>
      </trkpt>
      <trkpt lat="44.83435" lon="4.68392">
        <ele>290.46</ele>
        <time>2020-07-17T09:26:22Z</time>
      </trkpt>
      <trkpt lat="44.83428" lon="4.68392">
        <ele>290.94</ele>
        <time>2020-07-17T09:26:34Z</time>
      </trkpt>
      <trkpt lat="44.8342" lon="4.68401">
        <ele>295.26</ele>
        <time>2020-07-17T09:26:43Z</time>
      </trkpt>
      <trkpt lat="44.83404" lon="4.68418">
        <ele>304.39</ele>
        <time>2020-07-17T09:26:58Z</time>
      </trkpt>
      <trkpt lat="44.83387" lon="4.68433">
        <ele>303.91</ele>
        <time>2020-07-17T09:27:14Z</time>
      </trkpt>
      <trkpt lat="44.83372" lon="4.68452">
        <ele>300.07</ele>
        <time>2020-07-17T09:27:28Z</time>
      </trkpt>
      <trkpt lat="44.83347" lon="4.68465">
        <ele>294.78</ele>
        <time>2020-07-17T09:27:45Z</time>
      </trkpt>
      <trkpt lat="44.83324" lon="4.68469">
        <ele>294.3</ele>
        <time>2020-07-17T09:28:00Z</time>
      </trkpt>
      <trkpt lat="44.8332" lon="4.68471">
        <ele>293.82</ele>
        <time>2020-07-17T09:28:03Z</time>
      </trkpt>
      <trkpt lat="44.83298" lon="4.68489">
        <ele>289.97</ele>
        <time>2020-07-17T09:28:19Z</time>
      </trkpt>
      <trkpt lat="44.83276" lon="4.68499">
        <ele>288.05</ele>
        <time>2020-07-17T09:28:36Z</time>
      </trkpt>
      <trkpt lat="44.8327" lon="4.6849">
        <ele>285.17</ele>
        <time>2020-07-17T09:28:45Z</time>
      </trkpt>
      <trkpt lat="44.83263" lon="4.6848">
        <ele>282.77</ele>
        <time>2020-07-17T09:28:57Z</time>
      </trkpt>
      <trkpt lat="44.83254" lon="4.68476">
        <ele>280.84</ele>
        <time>2020-07-17T09:29:04Z</time>
      </trkpt>
      <trkpt lat="44.83243" lon="4.6846">
        <ele>275.56</ele>
        <time>2020-07-17T09:29:17Z</time>
      </trkpt>
      <trkpt lat="44.83238" lon="4.68455">
        <ele>273.63</ele>
        <time>2020-07-17T09:29:21Z</time>
      </trkpt>
      <trkpt lat="44.83233" lon="4.68451">
        <ele>272.67</ele>
        <time>2020-07-17T09:29:25Z</time>
      </trkpt>
      <trkpt lat="44.83228" lon="4.68444">
        <ele>272.19</ele>
        <time>2020-07-17T09:29:29Z</time>
      </trkpt>
      <trkpt lat="44.83218" lon="4.68424">
        <ele>268.83</ele>
        <time>2020-07-17T09:29:41Z</time>
      </trkpt>
      <trkpt lat="44.83216" lon="4.68405">
        <ele>266.42</ele>
        <time>2020-07-17T09:29:54Z</time>
      </trkpt>
      <trkpt lat="44.8321" lon="4.68402">
        <ele>264.5</ele>
        <time>2020-07-17T09:30:03Z</time>
      </trkpt>
      <trkpt lat="44.83196" lon="4.68383">
        <ele>259.21</ele>
        <time>2020-07-17T09:30:18Z</time>
      </trkpt>
      <trkpt lat="44.83194" lon="4.6838">
        <ele>258.25</ele>
        <time>2020-07-17T09:30:20Z</time>
      </trkpt>
      <trkpt lat="44.8319" lon="4.68374">
        <ele>256.33</ele>
        <time>2020-07-17T09:30:26Z</time>
      </trkpt>
      <trkpt lat="44.83184" lon="4.68368">
        <ele>254.89</ele>
        <time>2020-07-17T09:30:32Z</time>
      </trkpt>
      <trkpt lat="44.83178" lon="4.68361">
        <ele>252.96</ele>
        <time>2020-07-17T09:30:37Z</time>
      </trkpt>
      <trkpt lat="44.83172" lon="4.68338">
        <ele>249.12</ele>
        <time>2020-07-17T09:30:51Z</time>
      </trkpt>
      <trkpt lat="44.83166" lon="4.68329">
        <ele>246.72</ele>
        <time>2020-07-17T09:31:03Z</time>
      </trkpt>
      <trkpt lat="44.83155" lon="4.68328">
        <ele>243.35</ele>
        <time>2020-07-17T09:31:16Z</time>
      </trkpt>
      <trkpt lat="44.83132" lon="4.68335">
        <ele>239.99</ele>
        <time>2020-07-17T09:31:32Z</time>
      </trkpt>
      <trkpt lat="44.83129" lon="4.68331">
        <ele>234.22</ele>
        <time>2020-07-17T09:31:44Z</time>
      </trkpt>
      <trkpt lat="44.83124" lon="4.68314">
        <ele>227.97</ele>
        <time>2020-07-17T09:31:57Z</time>
      </trkpt>
      <trkpt lat="44.83119" lon="4.68302">
        <ele>220.76</ele>
        <time>2020-07-17T09:32:12Z</time>
      </trkpt>
      <trkpt lat="44.83115" lon="4.68289">
        <ele>218.84</ele>
        <time>2020-07-17T09:32:22Z</time>
      </trkpt>
      <trkpt lat="44.83109" lon="4.68293">
        <ele>215.95</ele>
        <time>2020-07-17T09:32:36Z</time>
      </trkpt>
      <trkpt lat="44.83102" lon="4.68283">
        <ele>212.11</ele>
        <time>2020-07-17T09:32:50Z</time>
      </trkpt>
      <trkpt lat="44.83096" lon="4.68279">
        <ele>209.7</ele>
        <time>2020-07-17T09:33:02Z</time>
      </trkpt>
      <trkpt lat="44.83092" lon="4.68275">
        <ele>207.78</ele>
        <time>2020-07-17T09:33:14Z</time>
      </trkpt>
      <trkpt lat="44.83085" lon="4.68277">
        <ele>204.42</ele>
        <time>2020-07-17T09:33:27Z</time>
      </trkpt>
      <trkpt lat="44.83078" lon="4.6827">
        <ele>202.49</ele>
        <time>2020-07-17T09:33:34Z</time>
      </trkpt>
      <trkpt lat="44.83072" lon="4.68264">
        <ele>199.13</ele>
        <time>2020-07-17T09:33:47Z</time>
      </trkpt>
      <trkpt lat="44.8306" lon="4.68261">
        <ele>196.73</ele>
        <time>2020-07-17T09:34:00Z</time>
      </trkpt>
      <trkpt lat="44.83049" lon="4.68253">
        <ele>192.4</ele>
        <time>2020-07-17T09:34:13Z</time>
      </trkpt>
      <trkpt lat="44.83043" lon="4.68241">
        <ele>188.56</ele>
        <time>2020-07-17T09:34:28Z</time>
      </trkpt>
      <trkpt lat="44.8304" lon="4.68236">
        <ele>183.75</ele>
        <time>2020-07-17T09:34:42Z</time>
      </trkpt>
      <trkpt lat="44.83034" lon="4.68237">
        <ele>178.94</ele>
        <time>2020-07-17T09:34:54Z</time>
      </trkpt>
      <trkpt lat="44.83025" lon="4.6823">
        <ele>172.21</ele>
        <time>2020-07-17T09:35:11Z</time>
      </trkpt>
      <trkpt lat="44.83017" lon="4.68228">
        <ele>169.33</ele>
        <time>2020-07-17T09:35:25Z</time>
      </trkpt>
      <trkpt lat="44.83005" lon="4.68229">
        <ele>165</ele>
        <time>2020-07-17T09:35:39Z</time>
      </trkpt>
      <trkpt lat="44.83003" lon="4.68228">
        <ele>164.52</ele>
        <time>2020-07-17T09:35:42Z</time>
      </trkpt>
      <trkpt lat="44.83" lon="4.68228">
        <ele>163.56</ele>
        <time>2020-07-17T09:35:45Z</time>
      </trkpt>
      <trkpt lat="44.82989" lon="4.68215">
        <ele>158.27</ele>
        <time>2020-07-17T09:35:58Z</time>
      </trkpt>
      <trkpt lat="44.82988" lon="4.68209">
        <ele>156.83</ele>
        <time>2020-07-17T09:36:03Z</time>
      </trkpt>
      <trkpt lat="44.82983" lon="4.68174">
        <ele>159.24</ele>
        <time>2020-07-17T09:36:19Z</time>
      </trkpt>
      <trkpt lat="44.8298" lon="4.68151">
        <ele>162.12</ele>
        <time>2020-07-17T09:36:30Z</time>
      </trkpt>
      <trkpt lat="44.82977" lon="4.68131">
        <ele>163.08</ele>
        <time>2020-07-17T09:36:40Z</time>
      </trkpt>
      <trkpt lat="44.82979" lon="4.681">
        <ele>159.72</ele>
        <time>2020-07-17T09:36:57Z</time>
      </trkpt>
      <trkpt lat="44.82983" lon="4.68067">
        <ele>153.47</ele>
        <time>2020-07-17T09:37:13Z</time>
      </trkpt>
      <trkpt lat="44.82986" lon="4.68024">
        <ele>149.62</ele>
        <time>2020-07-17T09:37:32Z</time>
      </trkpt>
      <trkpt lat="44.82989" lon="4.67988">
        <ele>152.99</ele>
        <time>2020-07-17T09:37:49Z</time>
      </trkpt>
      <trkpt lat="44.82989" lon="4.67976">
        <ele>154.43</ele>
        <time>2020-07-17T09:37:55Z</time>
      </trkpt>
      <trkpt lat="44.82991" lon="4.67938">
        <ele>157.31</ele>
        <time>2020-07-17T09:38:13Z</time>
      </trkpt>
      <trkpt lat="44.82991" lon="4.679">
        <ele>156.83</ele>
        <time>2020-07-17T09:38:31Z</time>
      </trkpt>
      <trkpt lat="44.82988" lon="4.67864">
        <ele>154.91</ele>
        <time>2020-07-17T09:38:48Z</time>
      </trkpt>
      <trkpt lat="44.82984" lon="4.67831">
        <ele>159.24</ele>
        <time>2020-07-17T09:39:06Z</time>
      </trkpt>
      <trkpt lat="44.8298" lon="4.67804">
        <ele>163.56</ele>
        <time>2020-07-17T09:39:22Z</time>
      </trkpt>
      <trkpt lat="44.82959" lon="4.67776">
        <ele>162.6</ele>
        <time>2020-07-17T09:39:36Z</time>
      </trkpt>
      <trkpt lat="44.82949" lon="4.67757">
        <ele>166.93</ele>
        <time>2020-07-17T09:39:53Z</time>
      </trkpt>
      <trkpt lat="44.82943" lon="4.67743">
        <ele>164.04</ele>
        <time>2020-07-17T09:40:03Z</time>
      </trkpt>
      <trkpt lat="44.82941" lon="4.67731">
        <ele>165.48</ele>
        <time>2020-07-17T09:40:11Z</time>
      </trkpt>
      <trkpt lat="44.82932" lon="4.67696">
        <ele>169.81</ele>
        <time>2020-07-17T09:40:28Z</time>
      </trkpt>
      <trkpt lat="44.82916" lon="4.67672">
        <ele>172.21</ele>
        <time>2020-07-17T09:40:41Z</time>
      </trkpt>
      <trkpt lat="44.82912" lon="4.67645">
        <ele>167.41</ele>
        <time>2020-07-17T09:40:55Z</time>
      </trkpt>
      <trkpt lat="44.8291" lon="4.67622">
        <ele>163.56</ele>
        <time>2020-07-17T09:41:07Z</time>
      </trkpt>
      <trkpt lat="44.82907" lon="4.67615">
        <ele>162.6</ele>
        <time>2020-07-17T09:41:19Z</time>
      </trkpt>
      <trkpt lat="44.82906" lon="4.67613">
        <ele>161.64</ele>
        <time>2020-07-17T09:41:22Z</time>
      </trkpt>
      <trkpt lat="44.82904" lon="4.67608">
        <ele>161.64</ele>
        <time>2020-07-17T09:41:35Z</time>
      </trkpt>
      <trkpt lat="44.82904" lon="4.676">
        <ele>165</ele>
        <time>2020-07-17T09:42:42Z</time>
      </trkpt>
      <trkpt lat="44.829" lon="4.67594">
        <ele>164.04</ele>
        <time>2020-07-17T09:43:03Z</time>
      </trkpt>
      <trkpt lat="44.829" lon="4.67594">
        <ele>163.56</ele>
        <time>2020-07-17T09:43:30Z</time>
      </trkpt>
      <trkpt lat="44.82902" lon="4.67604">
        <ele>164.04</ele>
        <time>2020-07-17T09:44:06Z</time>
      </trkpt>
      <trkpt lat="44.82902" lon="4.67607">
        <ele>163.56</ele>
        <time>2020-07-17T09:44:29Z</time>
      </trkpt>
      <trkpt lat="44.82912" lon="4.67605">
        <ele>163.56</ele>
        <time>2020-07-17T09:44:50Z</time>
      </trkpt>
      <trkpt lat="44.82915" lon="4.67608">
        <ele>163.56</ele>
        <time>2020-07-17T09:44:52Z</time>
      </trkpt>
      <trkpt lat="44.82921" lon="4.67611">
        <ele>160.2</ele>
        <time>2020-07-17T09:45:14Z</time>
      </trkpt>
      <trkpt lat="44.8291" lon="4.67606">
        <ele>157.31</ele>
        <time>2020-07-17T09:45:34Z</time>
      </trkpt>
      <trkpt lat="44.8291" lon="4.6761">
        <ele>157.31</ele>
        <time>2020-07-17T09:45:57Z</time>
      </trkpt>
      <trkpt lat="44.8291" lon="4.67618">
        <ele>162.6</ele>
        <time>2020-07-17T09:46:16Z</time>
      </trkpt>
      <trkpt lat="44.82892" lon="4.67626">
        <ele>168.85</ele>
        <time>2020-07-17T09:46:32Z</time>
      </trkpt>
      <trkpt lat="44.8288" lon="4.67629">
        <ele>170.77</ele>
        <time>2020-07-17T09:46:44Z</time>
      </trkpt>
      <trkpt lat="44.82866" lon="4.67628">
        <ele>177.5</ele>
        <time>2020-07-17T09:46:58Z</time>
      </trkpt>
      <trkpt lat="44.8285" lon="4.67639">
        <ele>183.27</ele>
        <time>2020-07-17T09:47:14Z</time>
      </trkpt>
      <trkpt lat="44.8283" lon="4.67655">
        <ele>180.38</ele>
        <time>2020-07-17T09:47:31Z</time>
      </trkpt>
      <trkpt lat="44.82817" lon="4.67664">
        <ele>187.59</ele>
        <time>2020-07-17T09:47:47Z</time>
      </trkpt>
      <trkpt lat="44.828" lon="4.67675">
        <ele>191.44</ele>
        <time>2020-07-17T09:48:05Z</time>
      </trkpt>
      <trkpt lat="44.82766" lon="4.67695">
        <ele>179.42</ele>
        <time>2020-07-17T09:48:22Z</time>
      </trkpt>
      <trkpt lat="44.82765" lon="4.67701">
        <ele>165.96</ele>
        <time>2020-07-17T09:48:25Z</time>
      </trkpt>
      <trkpt lat="44.82733" lon="4.67716">
        <ele>152.99</ele>
        <time>2020-07-17T09:48:43Z</time>
      </trkpt>
      <trkpt lat="44.82703" lon="4.67733">
        <ele>151.06</ele>
        <time>2020-07-17T09:49:05Z</time>
      </trkpt>
      <trkpt lat="44.82685" lon="4.67746">
        <ele>148.66</ele>
        <time>2020-07-17T09:49:23Z</time>
      </trkpt>
      <trkpt lat="44.82656" lon="4.67761">
        <ele>149.14</ele>
        <time>2020-07-17T09:49:42Z</time>
      </trkpt>
      <trkpt lat="44.82645" lon="4.67796">
        <ele>154.91</ele>
        <time>2020-07-17T09:50:01Z</time>
      </trkpt>
      <trkpt lat="44.82637" lon="4.67831">
        <ele>155.87</ele>
        <time>2020-07-17T09:50:18Z</time>
      </trkpt>
      <trkpt lat="44.82635" lon="4.67877">
        <ele>158.75</ele>
        <time>2020-07-17T09:50:41Z</time>
      </trkpt>
      <trkpt lat="44.82635" lon="4.67908">
        <ele>163.08</ele>
        <time>2020-07-17T09:50:58Z</time>
      </trkpt>
      <trkpt lat="44.82633" lon="4.67932">
        <ele>165.96</ele>
        <time>2020-07-17T09:51:14Z</time>
      </trkpt>
      <trkpt lat="44.82637" lon="4.67967">
        <ele>171.73</ele>
        <time>2020-07-17T09:51:32Z</time>
      </trkpt>
      <trkpt lat="44.82642" lon="4.67997">
        <ele>177.98</ele>
        <time>2020-07-17T09:51:48Z</time>
      </trkpt>
      <trkpt lat="44.82636" lon="4.68025">
        <ele>178.46</ele>
        <time>2020-07-17T09:52:04Z</time>
      </trkpt>
      <trkpt lat="44.82639" lon="4.68039">
        <ele>177.02</ele>
        <time>2020-07-17T09:52:14Z</time>
      </trkpt>
      <trkpt lat="44.82635" lon="4.68041">
        <ele>176.06</ele>
        <time>2020-07-17T09:52:18Z</time>
      </trkpt>
      <trkpt lat="44.82615" lon="4.6803">
        <ele>170.77</ele>
        <time>2020-07-17T09:52:33Z</time>
      </trkpt>
      <trkpt lat="44.82615" lon="4.68029">
        <ele>170.77</ele>
        <time>2020-07-17T09:52:34Z</time>
      </trkpt>
      <trkpt lat="44.82615" lon="4.68023">
        <ele>168.85</ele>
        <time>2020-07-17T09:52:50Z</time>
      </trkpt>
      <trkpt lat="44.82614" lon="4.68022">
        <ele>164.52</ele>
        <time>2020-07-17T09:53:08Z</time>
      </trkpt>
      <trkpt lat="44.82614" lon="4.6802">
        <ele>161.16</ele>
        <time>2020-07-17T09:53:30Z</time>
      </trkpt>
      <trkpt lat="44.82614" lon="4.68019">
        <ele>158.27</ele>
        <time>2020-07-17T09:53:57Z</time>
      </trkpt>
      <trkpt lat="44.82615" lon="4.68019">
        <ele>156.35</ele>
        <time>2020-07-17T09:54:22Z</time>
      </trkpt>
      <trkpt lat="44.82615" lon="4.68019">
        <ele>155.87</ele>
        <time>2020-07-17T09:54:40Z</time>
      </trkpt>
      <trkpt lat="44.82615" lon="4.68018">
        <ele>155.39</ele>
        <time>2020-07-17T09:54:59Z</time>
      </trkpt>
      <trkpt lat="44.82616" lon="4.68019">
        <ele>155.39</ele>
        <time>2020-07-17T09:55:24Z</time>
      </trkpt>
    </trkseg>
  </trk>
</gpx>